<?xml version="1.0" encoding="UTF-8" standalone="no" ?>
<gpx xmlns="http://www.topografix.com/GPX/1/1" xmlns:xsi="http://www.w3.org/2001/XMLSchema-instance" xsi:schemaLocation="http://www.topografix.com/GPX/1/1 http://www.topografix.com/GPX/1/1/gpx.xsd" version="1.1" creator="VisuGPX - https://www.visugpx.com">
  <metadata>
    <name>Pointe Observatoire</name>
    <desc><![CDATA[Monginevro - Pointe Observatoire]]></desc>
  </metadata>
  <trk>
    <name><![CDATA[P_Observatoire_2021-11-20]]></name>
    <trkseg>
      <trkpt lat="44.92771" lon="6.71083">
        <ele>1782.51</ele>
        <time>2021-11-20T08:05:12Z</time>
      </trkpt>
      <trkpt lat="44.9277" lon="6.71082">
        <ele>1783.19</ele>
        <time>2021-11-20T08:05:23Z</time>
      </trkpt>
      <trkpt lat="44.92771" lon="6.71082">
        <ele>1782.19</ele>
        <time>2021-11-20T08:05:38Z</time>
      </trkpt>
      <trkpt lat="44.9277" lon="6.71081">
        <ele>1781.27</ele>
        <time>2021-11-20T08:06:26Z</time>
      </trkpt>
      <trkpt lat="44.9277" lon="6.7108">
        <ele>1779.9</ele>
        <time>2021-11-20T08:06:59Z</time>
      </trkpt>
      <trkpt lat="44.92771" lon="6.7108">
        <ele>1780.02</ele>
        <time>2021-11-20T08:07:16Z</time>
      </trkpt>
      <trkpt lat="44.9277" lon="6.71082">
        <ele>1780.15</ele>
        <time>2021-11-20T08:07:26Z</time>
      </trkpt>
      <trkpt lat="44.9277" lon="6.71081">
        <ele>1780.33</ele>
        <time>2021-11-20T08:07:37Z</time>
      </trkpt>
      <trkpt lat="44.92772" lon="6.7108">
        <ele>1780.64</ele>
        <time>2021-11-20T08:07:47Z</time>
      </trkpt>
      <trkpt lat="44.92769" lon="6.71081">
        <ele>1779.99</ele>
        <time>2021-11-20T08:07:57Z</time>
      </trkpt>
      <trkpt lat="44.92768" lon="6.71083">
        <ele>1779.04</ele>
        <time>2021-11-20T08:08:07Z</time>
      </trkpt>
      <trkpt lat="44.92766" lon="6.71083">
        <ele>1776.93</ele>
        <time>2021-11-20T08:08:17Z</time>
      </trkpt>
      <trkpt lat="44.92767" lon="6.71081">
        <ele>1775.84</ele>
        <time>2021-11-20T08:08:27Z</time>
      </trkpt>
      <trkpt lat="44.92768" lon="6.7108">
        <ele>1777.76</ele>
        <time>2021-11-20T08:08:37Z</time>
      </trkpt>
      <trkpt lat="44.92767" lon="6.7108">
        <ele>1777.06</ele>
        <time>2021-11-20T08:09:01Z</time>
      </trkpt>
      <trkpt lat="44.92768" lon="6.7108">
        <ele>1777.12</ele>
        <time>2021-11-20T08:09:33Z</time>
      </trkpt>
      <trkpt lat="44.92769" lon="6.71079">
        <ele>1777.38</ele>
        <time>2021-11-20T08:09:44Z</time>
      </trkpt>
      <trkpt lat="44.9277" lon="6.71079">
        <ele>1777.45</ele>
        <time>2021-11-20T08:10:04Z</time>
      </trkpt>
      <trkpt lat="44.92771" lon="6.71079">
        <ele>1780.18</ele>
        <time>2021-11-20T08:10:50Z</time>
      </trkpt>
      <trkpt lat="44.9277" lon="6.71079">
        <ele>1779.63</ele>
        <time>2021-11-20T08:11:09Z</time>
      </trkpt>
      <trkpt lat="44.92771" lon="6.71078">
        <ele>1779.22</ele>
        <time>2021-11-20T08:11:30Z</time>
      </trkpt>
      <trkpt lat="44.9277" lon="6.7108">
        <ele>1779.63</ele>
        <time>2021-11-20T08:11:40Z</time>
      </trkpt>
      <trkpt lat="44.92771" lon="6.71079">
        <ele>1778.97</ele>
        <time>2021-11-20T08:12:25Z</time>
      </trkpt>
      <trkpt lat="44.92772" lon="6.71078">
        <ele>1777.85</ele>
        <time>2021-11-20T08:12:39Z</time>
      </trkpt>
      <trkpt lat="44.92773" lon="6.71079">
        <ele>1777.55</ele>
        <time>2021-11-20T08:13:21Z</time>
      </trkpt>
      <trkpt lat="44.92772" lon="6.71079">
        <ele>1778.13</ele>
        <time>2021-11-20T08:13:38Z</time>
      </trkpt>
      <trkpt lat="44.92772" lon="6.71081">
        <ele>1777.57</ele>
        <time>2021-11-20T08:14:30Z</time>
      </trkpt>
      <trkpt lat="44.92773" lon="6.71089">
        <ele>1777.84</ele>
        <time>2021-11-20T08:14:40Z</time>
      </trkpt>
      <trkpt lat="44.92776" lon="6.71098">
        <ele>1777.15</ele>
        <time>2021-11-20T08:14:50Z</time>
      </trkpt>
      <trkpt lat="44.92775" lon="6.71105">
        <ele>1777.17</ele>
        <time>2021-11-20T08:15:00Z</time>
      </trkpt>
      <trkpt lat="44.92776" lon="6.71106">
        <ele>1778.1</ele>
        <time>2021-11-20T08:15:10Z</time>
      </trkpt>
      <trkpt lat="44.92773" lon="6.7111">
        <ele>1777.95</ele>
        <time>2021-11-20T08:15:20Z</time>
      </trkpt>
      <trkpt lat="44.92769" lon="6.71113">
        <ele>1776.66</ele>
        <time>2021-11-20T08:15:30Z</time>
      </trkpt>
      <trkpt lat="44.92764" lon="6.71113">
        <ele>1777.41</ele>
        <time>2021-11-20T08:15:40Z</time>
      </trkpt>
      <trkpt lat="44.9276" lon="6.71112">
        <ele>1776.11</ele>
        <time>2021-11-20T08:15:50Z</time>
      </trkpt>
      <trkpt lat="44.92757" lon="6.71112">
        <ele>1777.27</ele>
        <time>2021-11-20T08:16:00Z</time>
      </trkpt>
      <trkpt lat="44.92752" lon="6.7111">
        <ele>1777.79</ele>
        <time>2021-11-20T08:16:09Z</time>
      </trkpt>
      <trkpt lat="44.92746" lon="6.71109">
        <ele>1778.43</ele>
        <time>2021-11-20T08:16:19Z</time>
      </trkpt>
      <trkpt lat="44.9274" lon="6.71104">
        <ele>1779.42</ele>
        <time>2021-11-20T08:16:28Z</time>
      </trkpt>
      <trkpt lat="44.92738" lon="6.71106">
        <ele>1779.89</ele>
        <time>2021-11-20T08:16:38Z</time>
      </trkpt>
      <trkpt lat="44.92738" lon="6.71105">
        <ele>1778.54</ele>
        <time>2021-11-20T08:16:57Z</time>
      </trkpt>
      <trkpt lat="44.92738" lon="6.71103">
        <ele>1777.83</ele>
        <time>2021-11-20T08:17:07Z</time>
      </trkpt>
      <trkpt lat="44.92739" lon="6.71103">
        <ele>1778.6</ele>
        <time>2021-11-20T08:17:17Z</time>
      </trkpt>
      <trkpt lat="44.9274" lon="6.71101">
        <ele>1778.88</ele>
        <time>2021-11-20T08:17:27Z</time>
      </trkpt>
      <trkpt lat="44.92739" lon="6.71101">
        <ele>1779.36</ele>
        <time>2021-11-20T08:18:22Z</time>
      </trkpt>
      <trkpt lat="44.92732" lon="6.71099">
        <ele>1779.44</ele>
        <time>2021-11-20T08:18:31Z</time>
      </trkpt>
      <trkpt lat="44.92726" lon="6.71097">
        <ele>1780.42</ele>
        <time>2021-11-20T08:18:41Z</time>
      </trkpt>
      <trkpt lat="44.92727" lon="6.71098">
        <ele>1780.2</ele>
        <time>2021-11-20T08:18:51Z</time>
      </trkpt>
      <trkpt lat="44.92727" lon="6.71097">
        <ele>1780.85</ele>
        <time>2021-11-20T08:19:03Z</time>
      </trkpt>
      <trkpt lat="44.92723" lon="6.7109">
        <ele>1783.17</ele>
        <time>2021-11-20T08:19:12Z</time>
      </trkpt>
      <trkpt lat="44.92716" lon="6.71088">
        <ele>1783.12</ele>
        <time>2021-11-20T08:19:21Z</time>
      </trkpt>
      <trkpt lat="44.9271" lon="6.71085">
        <ele>1784.78</ele>
        <time>2021-11-20T08:19:31Z</time>
      </trkpt>
      <trkpt lat="44.92707" lon="6.71084">
        <ele>1784.42</ele>
        <time>2021-11-20T08:19:41Z</time>
      </trkpt>
      <trkpt lat="44.92706" lon="6.71086">
        <ele>1782.68</ele>
        <time>2021-11-20T08:19:51Z</time>
      </trkpt>
      <trkpt lat="44.92707" lon="6.71087">
        <ele>1783.19</ele>
        <time>2021-11-20T08:20:00Z</time>
      </trkpt>
      <trkpt lat="44.92709" lon="6.7109">
        <ele>1784.59</ele>
        <time>2021-11-20T08:20:10Z</time>
      </trkpt>
      <trkpt lat="44.9271" lon="6.71097">
        <ele>1784.44</ele>
        <time>2021-11-20T08:20:20Z</time>
      </trkpt>
      <trkpt lat="44.9271" lon="6.711">
        <ele>1787.94</ele>
        <time>2021-11-20T08:20:30Z</time>
      </trkpt>
      <trkpt lat="44.92709" lon="6.7111">
        <ele>1791.13</ele>
        <time>2021-11-20T08:20:40Z</time>
      </trkpt>
      <trkpt lat="44.92706" lon="6.71119">
        <ele>1793.31</ele>
        <time>2021-11-20T08:20:50Z</time>
      </trkpt>
      <trkpt lat="44.92701" lon="6.71124">
        <ele>1791.04</ele>
        <time>2021-11-20T08:21:00Z</time>
      </trkpt>
      <trkpt lat="44.92696" lon="6.71125">
        <ele>1791.73</ele>
        <time>2021-11-20T08:21:09Z</time>
      </trkpt>
      <trkpt lat="44.92692" lon="6.71125">
        <ele>1794.77</ele>
        <time>2021-11-20T08:21:19Z</time>
      </trkpt>
      <trkpt lat="44.92687" lon="6.71123">
        <ele>1792.48</ele>
        <time>2021-11-20T08:21:29Z</time>
      </trkpt>
      <trkpt lat="44.92684" lon="6.71121">
        <ele>1792.37</ele>
        <time>2021-11-20T08:21:39Z</time>
      </trkpt>
      <trkpt lat="44.92682" lon="6.7112">
        <ele>1792.69</ele>
        <time>2021-11-20T08:21:48Z</time>
      </trkpt>
      <trkpt lat="44.92678" lon="6.7112">
        <ele>1794.2</ele>
        <time>2021-11-20T08:21:57Z</time>
      </trkpt>
      <trkpt lat="44.92673" lon="6.71118">
        <ele>1792.18</ele>
        <time>2021-11-20T08:22:08Z</time>
      </trkpt>
      <trkpt lat="44.92667" lon="6.7112">
        <ele>1791.23</ele>
        <time>2021-11-20T08:22:17Z</time>
      </trkpt>
      <trkpt lat="44.9266" lon="6.71122">
        <ele>1793.57</ele>
        <time>2021-11-20T08:22:26Z</time>
      </trkpt>
      <trkpt lat="44.92656" lon="6.71121">
        <ele>1793.55</ele>
        <time>2021-11-20T08:22:37Z</time>
      </trkpt>
      <trkpt lat="44.92651" lon="6.71118">
        <ele>1795.69</ele>
        <time>2021-11-20T08:22:47Z</time>
      </trkpt>
      <trkpt lat="44.9265" lon="6.71118">
        <ele>1794.02</ele>
        <time>2021-11-20T08:22:56Z</time>
      </trkpt>
      <trkpt lat="44.92644" lon="6.71118">
        <ele>1798.92</ele>
        <time>2021-11-20T08:23:06Z</time>
      </trkpt>
      <trkpt lat="44.92638" lon="6.71119">
        <ele>1800.14</ele>
        <time>2021-11-20T08:23:16Z</time>
      </trkpt>
      <trkpt lat="44.92633" lon="6.71122">
        <ele>1802.83</ele>
        <time>2021-11-20T08:23:26Z</time>
      </trkpt>
      <trkpt lat="44.9263" lon="6.71123">
        <ele>1802.42</ele>
        <time>2021-11-20T08:23:36Z</time>
      </trkpt>
      <trkpt lat="44.92626" lon="6.71121">
        <ele>1802.73</ele>
        <time>2021-11-20T08:23:46Z</time>
      </trkpt>
      <trkpt lat="44.92622" lon="6.71119">
        <ele>1799.41</ele>
        <time>2021-11-20T08:23:56Z</time>
      </trkpt>
      <trkpt lat="44.92619" lon="6.71119">
        <ele>1797.13</ele>
        <time>2021-11-20T08:24:06Z</time>
      </trkpt>
      <trkpt lat="44.92616" lon="6.71118">
        <ele>1797.25</ele>
        <time>2021-11-20T08:24:16Z</time>
      </trkpt>
      <trkpt lat="44.92613" lon="6.7112">
        <ele>1799.9</ele>
        <time>2021-11-20T08:24:26Z</time>
      </trkpt>
      <trkpt lat="44.92613" lon="6.71124">
        <ele>1802.68</ele>
        <time>2021-11-20T08:24:36Z</time>
      </trkpt>
      <trkpt lat="44.92609" lon="6.71129">
        <ele>1803.84</ele>
        <time>2021-11-20T08:24:45Z</time>
      </trkpt>
      <trkpt lat="44.92606" lon="6.71133">
        <ele>1798.12</ele>
        <time>2021-11-20T08:24:55Z</time>
      </trkpt>
      <trkpt lat="44.92603" lon="6.71135">
        <ele>1802.6</ele>
        <time>2021-11-20T08:25:05Z</time>
      </trkpt>
      <trkpt lat="44.92601" lon="6.71136">
        <ele>1809.31</ele>
        <time>2021-11-20T08:25:14Z</time>
      </trkpt>
      <trkpt lat="44.92595" lon="6.71139">
        <ele>1810.59</ele>
        <time>2021-11-20T08:25:23Z</time>
      </trkpt>
      <trkpt lat="44.92592" lon="6.71143">
        <ele>1812.84</ele>
        <time>2021-11-20T08:25:33Z</time>
      </trkpt>
      <trkpt lat="44.92593" lon="6.71146">
        <ele>1804.8</ele>
        <time>2021-11-20T08:25:43Z</time>
      </trkpt>
      <trkpt lat="44.9259" lon="6.71152">
        <ele>1801.83</ele>
        <time>2021-11-20T08:25:53Z</time>
      </trkpt>
      <trkpt lat="44.92586" lon="6.71156">
        <ele>1803.45</ele>
        <time>2021-11-20T08:26:02Z</time>
      </trkpt>
      <trkpt lat="44.92583" lon="6.71158">
        <ele>1810.35</ele>
        <time>2021-11-20T08:26:12Z</time>
      </trkpt>
      <trkpt lat="44.92578" lon="6.71157">
        <ele>1806.01</ele>
        <time>2021-11-20T08:26:21Z</time>
      </trkpt>
      <trkpt lat="44.92574" lon="6.71157">
        <ele>1812.24</ele>
        <time>2021-11-20T08:26:31Z</time>
      </trkpt>
      <trkpt lat="44.92572" lon="6.71156">
        <ele>1809.73</ele>
        <time>2021-11-20T08:26:41Z</time>
      </trkpt>
      <trkpt lat="44.9257" lon="6.71155">
        <ele>1811.34</ele>
        <time>2021-11-20T08:26:51Z</time>
      </trkpt>
      <trkpt lat="44.92569" lon="6.71154">
        <ele>1810.34</ele>
        <time>2021-11-20T08:27:01Z</time>
      </trkpt>
      <trkpt lat="44.92568" lon="6.71154">
        <ele>1806.54</ele>
        <time>2021-11-20T08:27:11Z</time>
      </trkpt>
      <trkpt lat="44.92566" lon="6.71158">
        <ele>1805.41</ele>
        <time>2021-11-20T08:27:20Z</time>
      </trkpt>
      <trkpt lat="44.92567" lon="6.71167">
        <ele>1811.09</ele>
        <time>2021-11-20T08:27:30Z</time>
      </trkpt>
      <trkpt lat="44.92571" lon="6.71175">
        <ele>1812.45</ele>
        <time>2021-11-20T08:27:39Z</time>
      </trkpt>
      <trkpt lat="44.92574" lon="6.71182">
        <ele>1812.33</ele>
        <time>2021-11-20T08:27:49Z</time>
      </trkpt>
      <trkpt lat="44.92576" lon="6.71188">
        <ele>1806.69</ele>
        <time>2021-11-20T08:27:58Z</time>
      </trkpt>
      <trkpt lat="44.92575" lon="6.71193">
        <ele>1806.29</ele>
        <time>2021-11-20T08:28:08Z</time>
      </trkpt>
      <trkpt lat="44.92574" lon="6.71192">
        <ele>1812.15</ele>
        <time>2021-11-20T08:28:18Z</time>
      </trkpt>
      <trkpt lat="44.92575" lon="6.71193">
        <ele>1813.81</ele>
        <time>2021-11-20T08:28:34Z</time>
      </trkpt>
      <trkpt lat="44.92574" lon="6.71194">
        <ele>1807.6</ele>
        <time>2021-11-20T08:28:45Z</time>
      </trkpt>
      <trkpt lat="44.92569" lon="6.71195">
        <ele>1809.97</ele>
        <time>2021-11-20T08:28:55Z</time>
      </trkpt>
      <trkpt lat="44.92564" lon="6.71198">
        <ele>1810.5</ele>
        <time>2021-11-20T08:29:04Z</time>
      </trkpt>
      <trkpt lat="44.92563" lon="6.71203">
        <ele>1817.44</ele>
        <time>2021-11-20T08:29:13Z</time>
      </trkpt>
      <trkpt lat="44.92563" lon="6.71205">
        <ele>1810.87</ele>
        <time>2021-11-20T08:29:25Z</time>
      </trkpt>
      <trkpt lat="44.92559" lon="6.7121">
        <ele>1817.24</ele>
        <time>2021-11-20T08:29:34Z</time>
      </trkpt>
      <trkpt lat="44.92557" lon="6.71212">
        <ele>1813.15</ele>
        <time>2021-11-20T08:29:45Z</time>
      </trkpt>
      <trkpt lat="44.92555" lon="6.71216">
        <ele>1819.6</ele>
        <time>2021-11-20T08:29:55Z</time>
      </trkpt>
      <trkpt lat="44.92554" lon="6.71218">
        <ele>1821.87</ele>
        <time>2021-11-20T08:30:05Z</time>
      </trkpt>
      <trkpt lat="44.92554" lon="6.71223">
        <ele>1815.05</ele>
        <time>2021-11-20T08:30:15Z</time>
      </trkpt>
      <trkpt lat="44.92552" lon="6.71229">
        <ele>1816.71</ele>
        <time>2021-11-20T08:30:24Z</time>
      </trkpt>
      <trkpt lat="44.92552" lon="6.71235">
        <ele>1816.23</ele>
        <time>2021-11-20T08:30:34Z</time>
      </trkpt>
      <trkpt lat="44.92552" lon="6.7124">
        <ele>1823.63</ele>
        <time>2021-11-20T08:30:44Z</time>
      </trkpt>
      <trkpt lat="44.9255" lon="6.71246">
        <ele>1825.02</ele>
        <time>2021-11-20T08:30:53Z</time>
      </trkpt>
      <trkpt lat="44.92549" lon="6.71253">
        <ele>1817.06</ele>
        <time>2021-11-20T08:31:02Z</time>
      </trkpt>
      <trkpt lat="44.9255" lon="6.7126">
        <ele>1825.98</ele>
        <time>2021-11-20T08:31:12Z</time>
      </trkpt>
      <trkpt lat="44.9255" lon="6.71264">
        <ele>1826.67</ele>
        <time>2021-11-20T08:31:21Z</time>
      </trkpt>
      <trkpt lat="44.92549" lon="6.7127">
        <ele>1818.68</ele>
        <time>2021-11-20T08:31:31Z</time>
      </trkpt>
      <trkpt lat="44.92548" lon="6.71274">
        <ele>1820.14</ele>
        <time>2021-11-20T08:31:41Z</time>
      </trkpt>
      <trkpt lat="44.92543" lon="6.71285">
        <ele>1820.36</ele>
        <time>2021-11-20T08:31:50Z</time>
      </trkpt>
      <trkpt lat="44.92542" lon="6.71293">
        <ele>1821.79</ele>
        <time>2021-11-20T08:32:00Z</time>
      </trkpt>
      <trkpt lat="44.92544" lon="6.71299">
        <ele>1823.2</ele>
        <time>2021-11-20T08:32:09Z</time>
      </trkpt>
      <trkpt lat="44.92544" lon="6.71307">
        <ele>1829.78</ele>
        <time>2021-11-20T08:32:19Z</time>
      </trkpt>
      <trkpt lat="44.92543" lon="6.71314">
        <ele>1828.53</ele>
        <time>2021-11-20T08:32:29Z</time>
      </trkpt>
      <trkpt lat="44.92539" lon="6.71321">
        <ele>1821.78</ele>
        <time>2021-11-20T08:32:39Z</time>
      </trkpt>
      <trkpt lat="44.92536" lon="6.71328">
        <ele>1831.24</ele>
        <time>2021-11-20T08:32:48Z</time>
      </trkpt>
      <trkpt lat="44.92534" lon="6.71329">
        <ele>1833.01</ele>
        <time>2021-11-20T08:32:58Z</time>
      </trkpt>
      <trkpt lat="44.92532" lon="6.71332">
        <ele>1832.55</ele>
        <time>2021-11-20T08:33:07Z</time>
      </trkpt>
      <trkpt lat="44.92528" lon="6.71335">
        <ele>1832.29</ele>
        <time>2021-11-20T08:33:17Z</time>
      </trkpt>
      <trkpt lat="44.92522" lon="6.71338">
        <ele>1835.67</ele>
        <time>2021-11-20T08:33:26Z</time>
      </trkpt>
      <trkpt lat="44.92521" lon="6.71339">
        <ele>1835.47</ele>
        <time>2021-11-20T08:33:36Z</time>
      </trkpt>
      <trkpt lat="44.92521" lon="6.71338">
        <ele>1836.08</ele>
        <time>2021-11-20T08:33:46Z</time>
      </trkpt>
      <trkpt lat="44.9252" lon="6.71338">
        <ele>1826</ele>
        <time>2021-11-20T08:33:56Z</time>
      </trkpt>
      <trkpt lat="44.92518" lon="6.71339">
        <ele>1826.59</ele>
        <time>2021-11-20T08:34:06Z</time>
      </trkpt>
      <trkpt lat="44.92517" lon="6.71339">
        <ele>1826.42</ele>
        <time>2021-11-20T08:34:16Z</time>
      </trkpt>
      <trkpt lat="44.92518" lon="6.71338">
        <ele>1826.11</ele>
        <time>2021-11-20T08:36:02Z</time>
      </trkpt>
      <trkpt lat="44.92517" lon="6.71339">
        <ele>1835.36</ele>
        <time>2021-11-20T08:36:22Z</time>
      </trkpt>
      <trkpt lat="44.92513" lon="6.7134">
        <ele>1835.99</ele>
        <time>2021-11-20T08:36:32Z</time>
      </trkpt>
      <trkpt lat="44.92512" lon="6.71338">
        <ele>1834.38</ele>
        <time>2021-11-20T08:36:42Z</time>
      </trkpt>
      <trkpt lat="44.92512" lon="6.7134">
        <ele>1836.7</ele>
        <time>2021-11-20T08:37:16Z</time>
      </trkpt>
      <trkpt lat="44.92509" lon="6.71345">
        <ele>1836.06</ele>
        <time>2021-11-20T08:37:26Z</time>
      </trkpt>
      <trkpt lat="44.92506" lon="6.71352">
        <ele>1829.09</ele>
        <time>2021-11-20T08:37:36Z</time>
      </trkpt>
      <trkpt lat="44.92504" lon="6.71357">
        <ele>1827.11</ele>
        <time>2021-11-20T08:37:46Z</time>
      </trkpt>
      <trkpt lat="44.92498" lon="6.71364">
        <ele>1829.41</ele>
        <time>2021-11-20T08:37:56Z</time>
      </trkpt>
      <trkpt lat="44.92493" lon="6.7137">
        <ele>1829.77</ele>
        <time>2021-11-20T08:38:06Z</time>
      </trkpt>
      <trkpt lat="44.92488" lon="6.71378">
        <ele>1827.06</ele>
        <time>2021-11-20T08:38:15Z</time>
      </trkpt>
      <trkpt lat="44.92484" lon="6.71386">
        <ele>1837.91</ele>
        <time>2021-11-20T08:38:25Z</time>
      </trkpt>
      <trkpt lat="44.92479" lon="6.71392">
        <ele>1830.25</ele>
        <time>2021-11-20T08:38:35Z</time>
      </trkpt>
      <trkpt lat="44.92472" lon="6.71399">
        <ele>1837.51</ele>
        <time>2021-11-20T08:38:44Z</time>
      </trkpt>
      <trkpt lat="44.92467" lon="6.71404">
        <ele>1829.58</ele>
        <time>2021-11-20T08:38:53Z</time>
      </trkpt>
      <trkpt lat="44.92462" lon="6.71407">
        <ele>1841.61</ele>
        <time>2021-11-20T08:39:03Z</time>
      </trkpt>
      <trkpt lat="44.92458" lon="6.71412">
        <ele>1830.15</ele>
        <time>2021-11-20T08:39:12Z</time>
      </trkpt>
      <trkpt lat="44.92454" lon="6.71418">
        <ele>1842.37</ele>
        <time>2021-11-20T08:39:22Z</time>
      </trkpt>
      <trkpt lat="44.9245" lon="6.71425">
        <ele>1832.83</ele>
        <time>2021-11-20T08:39:31Z</time>
      </trkpt>
      <trkpt lat="44.92447" lon="6.71433">
        <ele>1843.81</ele>
        <time>2021-11-20T08:39:40Z</time>
      </trkpt>
      <trkpt lat="44.92445" lon="6.71442">
        <ele>1832.49</ele>
        <time>2021-11-20T08:39:50Z</time>
      </trkpt>
      <trkpt lat="44.92441" lon="6.71451">
        <ele>1833.78</ele>
        <time>2021-11-20T08:39:59Z</time>
      </trkpt>
      <trkpt lat="44.92438" lon="6.71459">
        <ele>1833.51</ele>
        <time>2021-11-20T08:40:08Z</time>
      </trkpt>
      <trkpt lat="44.92434" lon="6.71468">
        <ele>1845.07</ele>
        <time>2021-11-20T08:40:18Z</time>
      </trkpt>
      <trkpt lat="44.9243" lon="6.71477">
        <ele>1843.12</ele>
        <time>2021-11-20T08:40:27Z</time>
      </trkpt>
      <trkpt lat="44.92426" lon="6.71484">
        <ele>1835.9</ele>
        <time>2021-11-20T08:40:36Z</time>
      </trkpt>
      <trkpt lat="44.9242" lon="6.71494">
        <ele>1846.14</ele>
        <time>2021-11-20T08:40:47Z</time>
      </trkpt>
      <trkpt lat="44.92417" lon="6.71504">
        <ele>1850.44</ele>
        <time>2021-11-20T08:40:56Z</time>
      </trkpt>
      <trkpt lat="44.92416" lon="6.71511">
        <ele>1846.88</ele>
        <time>2021-11-20T08:41:05Z</time>
      </trkpt>
      <trkpt lat="44.92414" lon="6.71518">
        <ele>1850.69</ele>
        <time>2021-11-20T08:41:15Z</time>
      </trkpt>
      <trkpt lat="44.92412" lon="6.71527">
        <ele>1846.83</ele>
        <time>2021-11-20T08:41:24Z</time>
      </trkpt>
      <trkpt lat="44.92411" lon="6.71534">
        <ele>1848.03</ele>
        <time>2021-11-20T08:41:33Z</time>
      </trkpt>
      <trkpt lat="44.92409" lon="6.71541">
        <ele>1861.69</ele>
        <time>2021-11-20T08:41:43Z</time>
      </trkpt>
      <trkpt lat="44.92405" lon="6.71552">
        <ele>1859.3</ele>
        <time>2021-11-20T08:41:52Z</time>
      </trkpt>
      <trkpt lat="44.92401" lon="6.71561">
        <ele>1858.18</ele>
        <time>2021-11-20T08:42:02Z</time>
      </trkpt>
      <trkpt lat="44.92397" lon="6.7157">
        <ele>1863.21</ele>
        <time>2021-11-20T08:42:12Z</time>
      </trkpt>
      <trkpt lat="44.92392" lon="6.71578">
        <ele>1863.42</ele>
        <time>2021-11-20T08:42:22Z</time>
      </trkpt>
      <trkpt lat="44.92387" lon="6.71585">
        <ele>1861.33</ele>
        <time>2021-11-20T08:42:32Z</time>
      </trkpt>
      <trkpt lat="44.9238" lon="6.71593">
        <ele>1862.05</ele>
        <time>2021-11-20T08:42:41Z</time>
      </trkpt>
      <trkpt lat="44.92376" lon="6.71601">
        <ele>1856.85</ele>
        <time>2021-11-20T08:42:52Z</time>
      </trkpt>
      <trkpt lat="44.92372" lon="6.7161">
        <ele>1864.62</ele>
        <time>2021-11-20T08:43:02Z</time>
      </trkpt>
      <trkpt lat="44.92368" lon="6.71618">
        <ele>1864.59</ele>
        <time>2021-11-20T08:43:11Z</time>
      </trkpt>
      <trkpt lat="44.92364" lon="6.71626">
        <ele>1865.35</ele>
        <time>2021-11-20T08:43:21Z</time>
      </trkpt>
      <trkpt lat="44.92362" lon="6.71634">
        <ele>1875.49</ele>
        <time>2021-11-20T08:43:31Z</time>
      </trkpt>
      <trkpt lat="44.92358" lon="6.71645">
        <ele>1875.32</ele>
        <time>2021-11-20T08:43:40Z</time>
      </trkpt>
      <trkpt lat="44.92354" lon="6.71653">
        <ele>1874.08</ele>
        <time>2021-11-20T08:43:50Z</time>
      </trkpt>
      <trkpt lat="44.92351" lon="6.71661">
        <ele>1872.89</ele>
        <time>2021-11-20T08:43:59Z</time>
      </trkpt>
      <trkpt lat="44.92348" lon="6.7167">
        <ele>1875.36</ele>
        <time>2021-11-20T08:44:09Z</time>
      </trkpt>
      <trkpt lat="44.92343" lon="6.71678">
        <ele>1876.69</ele>
        <time>2021-11-20T08:44:19Z</time>
      </trkpt>
      <trkpt lat="44.92331" lon="6.71671">
        <ele>1878.88</ele>
        <time>2021-11-20T08:44:28Z</time>
      </trkpt>
      <trkpt lat="44.92323" lon="6.71667">
        <ele>1879.83</ele>
        <time>2021-11-20T08:44:38Z</time>
      </trkpt>
      <trkpt lat="44.92322" lon="6.71667">
        <ele>1881.99</ele>
        <time>2021-11-20T08:44:49Z</time>
      </trkpt>
      <trkpt lat="44.92315" lon="6.71668">
        <ele>1879.67</ele>
        <time>2021-11-20T08:44:58Z</time>
      </trkpt>
      <trkpt lat="44.92311" lon="6.7166">
        <ele>1881.41</ele>
        <time>2021-11-20T08:45:08Z</time>
      </trkpt>
      <trkpt lat="44.9231" lon="6.71653">
        <ele>1880.31</ele>
        <time>2021-11-20T08:45:17Z</time>
      </trkpt>
      <trkpt lat="44.92311" lon="6.71647">
        <ele>1879.68</ele>
        <time>2021-11-20T08:45:27Z</time>
      </trkpt>
      <trkpt lat="44.92312" lon="6.71641">
        <ele>1885.09</ele>
        <time>2021-11-20T08:45:37Z</time>
      </trkpt>
      <trkpt lat="44.92308" lon="6.71634">
        <ele>1886.02</ele>
        <time>2021-11-20T08:45:47Z</time>
      </trkpt>
      <trkpt lat="44.92304" lon="6.71628">
        <ele>1885.46</ele>
        <time>2021-11-20T08:45:56Z</time>
      </trkpt>
      <trkpt lat="44.92301" lon="6.71621">
        <ele>1885.26</ele>
        <time>2021-11-20T08:46:05Z</time>
      </trkpt>
      <trkpt lat="44.92297" lon="6.71614">
        <ele>1884.62</ele>
        <time>2021-11-20T08:46:15Z</time>
      </trkpt>
      <trkpt lat="44.92291" lon="6.71606">
        <ele>1887.22</ele>
        <time>2021-11-20T08:46:25Z</time>
      </trkpt>
      <trkpt lat="44.92287" lon="6.71596">
        <ele>1891.08</ele>
        <time>2021-11-20T08:46:35Z</time>
      </trkpt>
      <trkpt lat="44.92282" lon="6.71588">
        <ele>1892.95</ele>
        <time>2021-11-20T08:46:44Z</time>
      </trkpt>
      <trkpt lat="44.92277" lon="6.71579">
        <ele>1890.89</ele>
        <time>2021-11-20T08:46:53Z</time>
      </trkpt>
      <trkpt lat="44.9227" lon="6.71574">
        <ele>1890.26</ele>
        <time>2021-11-20T08:47:02Z</time>
      </trkpt>
      <trkpt lat="44.92265" lon="6.71577">
        <ele>1889.94</ele>
        <time>2021-11-20T08:47:12Z</time>
      </trkpt>
      <trkpt lat="44.92266" lon="6.71584">
        <ele>1887.64</ele>
        <time>2021-11-20T08:47:22Z</time>
      </trkpt>
      <trkpt lat="44.9227" lon="6.71589">
        <ele>1890.29</ele>
        <time>2021-11-20T08:47:32Z</time>
      </trkpt>
      <trkpt lat="44.92273" lon="6.71594">
        <ele>1890.89</ele>
        <time>2021-11-20T08:47:42Z</time>
      </trkpt>
      <trkpt lat="44.92275" lon="6.71602">
        <ele>1892.31</ele>
        <time>2021-11-20T08:47:51Z</time>
      </trkpt>
      <trkpt lat="44.92276" lon="6.7161">
        <ele>1875.46</ele>
        <time>2021-11-20T08:48:01Z</time>
      </trkpt>
      <trkpt lat="44.92278" lon="6.7162">
        <ele>1877.48</ele>
        <time>2021-11-20T08:48:11Z</time>
      </trkpt>
      <trkpt lat="44.92279" lon="6.7163">
        <ele>1882.54</ele>
        <time>2021-11-20T08:48:20Z</time>
      </trkpt>
      <trkpt lat="44.9228" lon="6.71639">
        <ele>1884.38</ele>
        <time>2021-11-20T08:48:30Z</time>
      </trkpt>
      <trkpt lat="44.92281" lon="6.71649">
        <ele>1885.59</ele>
        <time>2021-11-20T08:48:39Z</time>
      </trkpt>
      <trkpt lat="44.92281" lon="6.71658">
        <ele>1881.31</ele>
        <time>2021-11-20T08:48:49Z</time>
      </trkpt>
      <trkpt lat="44.92281" lon="6.71669">
        <ele>1882.19</ele>
        <time>2021-11-20T08:48:59Z</time>
      </trkpt>
      <trkpt lat="44.92281" lon="6.71681">
        <ele>1884.09</ele>
        <time>2021-11-20T08:49:08Z</time>
      </trkpt>
      <trkpt lat="44.92282" lon="6.71689">
        <ele>1892.12</ele>
        <time>2021-11-20T08:49:17Z</time>
      </trkpt>
      <trkpt lat="44.92282" lon="6.71697">
        <ele>1887.13</ele>
        <time>2021-11-20T08:49:28Z</time>
      </trkpt>
      <trkpt lat="44.92282" lon="6.71708">
        <ele>1887.53</ele>
        <time>2021-11-20T08:49:38Z</time>
      </trkpt>
      <trkpt lat="44.92283" lon="6.71717">
        <ele>1886.87</ele>
        <time>2021-11-20T08:49:47Z</time>
      </trkpt>
      <trkpt lat="44.92284" lon="6.71726">
        <ele>1887.55</ele>
        <time>2021-11-20T08:49:57Z</time>
      </trkpt>
      <trkpt lat="44.92285" lon="6.71738">
        <ele>1888.98</ele>
        <time>2021-11-20T08:50:06Z</time>
      </trkpt>
      <trkpt lat="44.92286" lon="6.71747">
        <ele>1888.72</ele>
        <time>2021-11-20T08:50:16Z</time>
      </trkpt>
      <trkpt lat="44.92286" lon="6.71758">
        <ele>1888.11</ele>
        <time>2021-11-20T08:50:25Z</time>
      </trkpt>
      <trkpt lat="44.92286" lon="6.71768">
        <ele>1889.43</ele>
        <time>2021-11-20T08:50:35Z</time>
      </trkpt>
      <trkpt lat="44.92284" lon="6.7178">
        <ele>1902.67</ele>
        <time>2021-11-20T08:50:45Z</time>
      </trkpt>
      <trkpt lat="44.92284" lon="6.7179">
        <ele>1885.98</ele>
        <time>2021-11-20T08:50:55Z</time>
      </trkpt>
      <trkpt lat="44.92284" lon="6.718">
        <ele>1891.84</ele>
        <time>2021-11-20T08:51:05Z</time>
      </trkpt>
      <trkpt lat="44.92285" lon="6.7181">
        <ele>1902.52</ele>
        <time>2021-11-20T08:51:15Z</time>
      </trkpt>
      <trkpt lat="44.92286" lon="6.71819">
        <ele>1906.66</ele>
        <time>2021-11-20T08:51:24Z</time>
      </trkpt>
      <trkpt lat="44.92287" lon="6.71828">
        <ele>1907.29</ele>
        <time>2021-11-20T08:51:33Z</time>
      </trkpt>
      <trkpt lat="44.92288" lon="6.71839">
        <ele>1906.49</ele>
        <time>2021-11-20T08:51:43Z</time>
      </trkpt>
      <trkpt lat="44.92289" lon="6.71849">
        <ele>1906.26</ele>
        <time>2021-11-20T08:51:53Z</time>
      </trkpt>
      <trkpt lat="44.92288" lon="6.71863">
        <ele>1905.08</ele>
        <time>2021-11-20T08:52:03Z</time>
      </trkpt>
      <trkpt lat="44.92287" lon="6.71878">
        <ele>1903.7</ele>
        <time>2021-11-20T08:52:12Z</time>
      </trkpt>
      <trkpt lat="44.92286" lon="6.71888">
        <ele>1889.33</ele>
        <time>2021-11-20T08:52:21Z</time>
      </trkpt>
      <trkpt lat="44.92285" lon="6.71896">
        <ele>1902.88</ele>
        <time>2021-11-20T08:52:31Z</time>
      </trkpt>
      <trkpt lat="44.92286" lon="6.71905">
        <ele>1906.02</ele>
        <time>2021-11-20T08:52:40Z</time>
      </trkpt>
      <trkpt lat="44.92285" lon="6.71913">
        <ele>1912.04</ele>
        <time>2021-11-20T08:52:49Z</time>
      </trkpt>
      <trkpt lat="44.92283" lon="6.71921">
        <ele>1908.28</ele>
        <time>2021-11-20T08:52:59Z</time>
      </trkpt>
      <trkpt lat="44.92281" lon="6.71929">
        <ele>1908.84</ele>
        <time>2021-11-20T08:53:08Z</time>
      </trkpt>
      <trkpt lat="44.9228" lon="6.71938">
        <ele>1910.43</ele>
        <time>2021-11-20T08:53:17Z</time>
      </trkpt>
      <trkpt lat="44.92279" lon="6.71947">
        <ele>1911.03</ele>
        <time>2021-11-20T08:53:26Z</time>
      </trkpt>
      <trkpt lat="44.92277" lon="6.71955">
        <ele>1917.86</ele>
        <time>2021-11-20T08:53:36Z</time>
      </trkpt>
      <trkpt lat="44.92277" lon="6.71966">
        <ele>1916.58</ele>
        <time>2021-11-20T08:53:46Z</time>
      </trkpt>
      <trkpt lat="44.92275" lon="6.71979">
        <ele>1916.73</ele>
        <time>2021-11-20T08:53:55Z</time>
      </trkpt>
      <trkpt lat="44.92273" lon="6.71989">
        <ele>1915.96</ele>
        <time>2021-11-20T08:54:04Z</time>
      </trkpt>
      <trkpt lat="44.9227" lon="6.71996">
        <ele>1910.75</ele>
        <time>2021-11-20T08:54:14Z</time>
      </trkpt>
      <trkpt lat="44.92269" lon="6.71997">
        <ele>1910.37</ele>
        <time>2021-11-20T08:54:24Z</time>
      </trkpt>
      <trkpt lat="44.92269" lon="6.71996">
        <ele>1910.78</ele>
        <time>2021-11-20T08:54:36Z</time>
      </trkpt>
      <trkpt lat="44.92269" lon="6.71997">
        <ele>1916.74</ele>
        <time>2021-11-20T08:55:07Z</time>
      </trkpt>
      <trkpt lat="44.92264" lon="6.71996">
        <ele>1918.2</ele>
        <time>2021-11-20T08:55:17Z</time>
      </trkpt>
      <trkpt lat="44.92263" lon="6.71987">
        <ele>1919.6</ele>
        <time>2021-11-20T08:55:26Z</time>
      </trkpt>
      <trkpt lat="44.92263" lon="6.71983">
        <ele>1916.19</ele>
        <time>2021-11-20T08:55:36Z</time>
      </trkpt>
      <trkpt lat="44.92263" lon="6.71982">
        <ele>1915.51</ele>
        <time>2021-11-20T08:55:47Z</time>
      </trkpt>
      <trkpt lat="44.92262" lon="6.71981">
        <ele>1916.65</ele>
        <time>2021-11-20T08:56:21Z</time>
      </trkpt>
      <trkpt lat="44.92261" lon="6.71982">
        <ele>1911.87</ele>
        <time>2021-11-20T08:57:13Z</time>
      </trkpt>
      <trkpt lat="44.92264" lon="6.71981">
        <ele>1900.91</ele>
        <time>2021-11-20T08:58:18Z</time>
      </trkpt>
      <trkpt lat="44.92272" lon="6.71981">
        <ele>1901.97</ele>
        <time>2021-11-20T08:58:27Z</time>
      </trkpt>
      <trkpt lat="44.92269" lon="6.71968">
        <ele>1914.44</ele>
        <time>2021-11-20T08:58:36Z</time>
      </trkpt>
      <trkpt lat="44.92268" lon="6.71954">
        <ele>1906.38</ele>
        <time>2021-11-20T08:58:45Z</time>
      </trkpt>
      <trkpt lat="44.92271" lon="6.71942">
        <ele>1909.78</ele>
        <time>2021-11-20T08:58:54Z</time>
      </trkpt>
      <trkpt lat="44.9227" lon="6.71932">
        <ele>1913.06</ele>
        <time>2021-11-20T08:59:04Z</time>
      </trkpt>
      <trkpt lat="44.92268" lon="6.71924">
        <ele>1912.42</ele>
        <time>2021-11-20T08:59:13Z</time>
      </trkpt>
      <trkpt lat="44.92265" lon="6.71917">
        <ele>1907.26</ele>
        <time>2021-11-20T08:59:23Z</time>
      </trkpt>
      <trkpt lat="44.92262" lon="6.71912">
        <ele>1907.16</ele>
        <time>2021-11-20T08:59:33Z</time>
      </trkpt>
      <trkpt lat="44.92257" lon="6.71904">
        <ele>1915.35</ele>
        <time>2021-11-20T08:59:42Z</time>
      </trkpt>
      <trkpt lat="44.92254" lon="6.71898">
        <ele>1923.98</ele>
        <time>2021-11-20T08:59:52Z</time>
      </trkpt>
      <trkpt lat="44.9225" lon="6.71889">
        <ele>1917.87</ele>
        <time>2021-11-20T09:00:02Z</time>
      </trkpt>
      <trkpt lat="44.92245" lon="6.71879">
        <ele>1915.68</ele>
        <time>2021-11-20T09:00:12Z</time>
      </trkpt>
      <trkpt lat="44.92241" lon="6.7187">
        <ele>1915.92</ele>
        <time>2021-11-20T09:00:22Z</time>
      </trkpt>
      <trkpt lat="44.92237" lon="6.71861">
        <ele>1920.69</ele>
        <time>2021-11-20T09:00:32Z</time>
      </trkpt>
      <trkpt lat="44.92236" lon="6.71848">
        <ele>1916.02</ele>
        <time>2021-11-20T09:00:41Z</time>
      </trkpt>
      <trkpt lat="44.92234" lon="6.71838">
        <ele>1912.24</ele>
        <time>2021-11-20T09:00:51Z</time>
      </trkpt>
      <trkpt lat="44.92231" lon="6.71824">
        <ele>1915.33</ele>
        <time>2021-11-20T09:01:01Z</time>
      </trkpt>
      <trkpt lat="44.92227" lon="6.71818">
        <ele>1912.62</ele>
        <time>2021-11-20T09:01:10Z</time>
      </trkpt>
      <trkpt lat="44.92224" lon="6.71812">
        <ele>1915.8</ele>
        <time>2021-11-20T09:01:19Z</time>
      </trkpt>
      <trkpt lat="44.9222" lon="6.71807">
        <ele>1934.69</ele>
        <time>2021-11-20T09:01:30Z</time>
      </trkpt>
      <trkpt lat="44.92216" lon="6.71802">
        <ele>1926.58</ele>
        <time>2021-11-20T09:01:39Z</time>
      </trkpt>
      <trkpt lat="44.92211" lon="6.71797">
        <ele>1928.65</ele>
        <time>2021-11-20T09:01:49Z</time>
      </trkpt>
      <trkpt lat="44.92206" lon="6.71792">
        <ele>1922.82</ele>
        <time>2021-11-20T09:01:58Z</time>
      </trkpt>
      <trkpt lat="44.922" lon="6.71785">
        <ele>1923.42</ele>
        <time>2021-11-20T09:02:08Z</time>
      </trkpt>
      <trkpt lat="44.92194" lon="6.71781">
        <ele>1935.35</ele>
        <time>2021-11-20T09:02:18Z</time>
      </trkpt>
      <trkpt lat="44.92188" lon="6.71774">
        <ele>1926.34</ele>
        <time>2021-11-20T09:02:28Z</time>
      </trkpt>
      <trkpt lat="44.92184" lon="6.71766">
        <ele>1926.06</ele>
        <time>2021-11-20T09:02:37Z</time>
      </trkpt>
      <trkpt lat="44.9218" lon="6.71756">
        <ele>1923.79</ele>
        <time>2021-11-20T09:02:48Z</time>
      </trkpt>
      <trkpt lat="44.92177" lon="6.71745">
        <ele>1907.34</ele>
        <time>2021-11-20T09:02:57Z</time>
      </trkpt>
      <trkpt lat="44.92175" lon="6.71736">
        <ele>1914.82</ele>
        <time>2021-11-20T09:03:06Z</time>
      </trkpt>
      <trkpt lat="44.92173" lon="6.71724">
        <ele>1915.98</ele>
        <time>2021-11-20T09:03:16Z</time>
      </trkpt>
      <trkpt lat="44.92171" lon="6.71713">
        <ele>1911.68</ele>
        <time>2021-11-20T09:03:25Z</time>
      </trkpt>
      <trkpt lat="44.92167" lon="6.71705">
        <ele>1888.42</ele>
        <time>2021-11-20T09:03:35Z</time>
      </trkpt>
      <trkpt lat="44.92161" lon="6.71702">
        <ele>1911.86</ele>
        <time>2021-11-20T09:03:44Z</time>
      </trkpt>
      <trkpt lat="44.92156" lon="6.71708">
        <ele>1908.92</ele>
        <time>2021-11-20T09:03:55Z</time>
      </trkpt>
      <trkpt lat="44.92157" lon="6.71717">
        <ele>1885.23</ele>
        <time>2021-11-20T09:04:04Z</time>
      </trkpt>
      <trkpt lat="44.9216" lon="6.71724">
        <ele>1908.78</ele>
        <time>2021-11-20T09:04:13Z</time>
      </trkpt>
      <trkpt lat="44.92163" lon="6.7173">
        <ele>1908.06</ele>
        <time>2021-11-20T09:04:23Z</time>
      </trkpt>
      <trkpt lat="44.92165" lon="6.71739">
        <ele>1885.09</ele>
        <time>2021-11-20T09:04:32Z</time>
      </trkpt>
      <trkpt lat="44.92167" lon="6.71747">
        <ele>1910.01</ele>
        <time>2021-11-20T09:04:42Z</time>
      </trkpt>
      <trkpt lat="44.92168" lon="6.71753">
        <ele>1914.25</ele>
        <time>2021-11-20T09:04:51Z</time>
      </trkpt>
      <trkpt lat="44.92171" lon="6.7176">
        <ele>1915.44</ele>
        <time>2021-11-20T09:05:01Z</time>
      </trkpt>
      <trkpt lat="44.92174" lon="6.71769">
        <ele>1886.54</ele>
        <time>2021-11-20T09:05:11Z</time>
      </trkpt>
      <trkpt lat="44.92176" lon="6.71778">
        <ele>1899.01</ele>
        <time>2021-11-20T09:05:20Z</time>
      </trkpt>
      <trkpt lat="44.92178" lon="6.71785">
        <ele>1895.69</ele>
        <time>2021-11-20T09:05:30Z</time>
      </trkpt>
      <trkpt lat="44.9218" lon="6.71794">
        <ele>1895.57</ele>
        <time>2021-11-20T09:05:39Z</time>
      </trkpt>
      <trkpt lat="44.92181" lon="6.718">
        <ele>1884.52</ele>
        <time>2021-11-20T09:05:49Z</time>
      </trkpt>
      <trkpt lat="44.92183" lon="6.71809">
        <ele>1886.22</ele>
        <time>2021-11-20T09:05:58Z</time>
      </trkpt>
      <trkpt lat="44.92185" lon="6.71818">
        <ele>1920.83</ele>
        <time>2021-11-20T09:06:08Z</time>
      </trkpt>
      <trkpt lat="44.92187" lon="6.71827">
        <ele>1900.39</ele>
        <time>2021-11-20T09:06:17Z</time>
      </trkpt>
      <trkpt lat="44.92188" lon="6.71834">
        <ele>1894.43</ele>
        <time>2021-11-20T09:06:27Z</time>
      </trkpt>
      <trkpt lat="44.92189" lon="6.71845">
        <ele>1927.05</ele>
        <time>2021-11-20T09:06:37Z</time>
      </trkpt>
      <trkpt lat="44.92191" lon="6.71855">
        <ele>1924.65</ele>
        <time>2021-11-20T09:06:47Z</time>
      </trkpt>
      <trkpt lat="44.92191" lon="6.71865">
        <ele>1924.22</ele>
        <time>2021-11-20T09:06:56Z</time>
      </trkpt>
      <trkpt lat="44.92192" lon="6.71874">
        <ele>1926.37</ele>
        <time>2021-11-20T09:07:05Z</time>
      </trkpt>
      <trkpt lat="44.92192" lon="6.71886">
        <ele>1927.32</ele>
        <time>2021-11-20T09:07:15Z</time>
      </trkpt>
      <trkpt lat="44.92194" lon="6.71901">
        <ele>1929.91</ele>
        <time>2021-11-20T09:07:24Z</time>
      </trkpt>
      <trkpt lat="44.92195" lon="6.71911">
        <ele>1901.77</ele>
        <time>2021-11-20T09:07:34Z</time>
      </trkpt>
      <trkpt lat="44.92194" lon="6.7192">
        <ele>1901.02</ele>
        <time>2021-11-20T09:07:43Z</time>
      </trkpt>
      <trkpt lat="44.92193" lon="6.71929">
        <ele>1928.54</ele>
        <time>2021-11-20T09:07:52Z</time>
      </trkpt>
      <trkpt lat="44.92192" lon="6.71939">
        <ele>1901.68</ele>
        <time>2021-11-20T09:08:02Z</time>
      </trkpt>
      <trkpt lat="44.92191" lon="6.71951">
        <ele>1902.65</ele>
        <time>2021-11-20T09:08:12Z</time>
      </trkpt>
      <trkpt lat="44.92188" lon="6.71965">
        <ele>1929.4</ele>
        <time>2021-11-20T09:08:21Z</time>
      </trkpt>
      <trkpt lat="44.92185" lon="6.71973">
        <ele>1930.11</ele>
        <time>2021-11-20T09:08:30Z</time>
      </trkpt>
      <trkpt lat="44.92183" lon="6.71981">
        <ele>1933.13</ele>
        <time>2021-11-20T09:08:40Z</time>
      </trkpt>
      <trkpt lat="44.92179" lon="6.7199">
        <ele>1933.4</ele>
        <time>2021-11-20T09:08:49Z</time>
      </trkpt>
      <trkpt lat="44.92176" lon="6.71999">
        <ele>1959.59</ele>
        <time>2021-11-20T09:08:58Z</time>
      </trkpt>
      <trkpt lat="44.92173" lon="6.72009">
        <ele>1978.3</ele>
        <time>2021-11-20T09:09:08Z</time>
      </trkpt>
      <trkpt lat="44.92169" lon="6.72017">
        <ele>1978.76</ele>
        <time>2021-11-20T09:09:17Z</time>
      </trkpt>
      <trkpt lat="44.92165" lon="6.72026">
        <ele>1915.23</ele>
        <time>2021-11-20T09:09:27Z</time>
      </trkpt>
      <trkpt lat="44.9216" lon="6.72033">
        <ele>1948.63</ele>
        <time>2021-11-20T09:09:36Z</time>
      </trkpt>
      <trkpt lat="44.92156" lon="6.7204">
        <ele>1937.97</ele>
        <time>2021-11-20T09:09:45Z</time>
      </trkpt>
      <trkpt lat="44.92153" lon="6.72048">
        <ele>1908.09</ele>
        <time>2021-11-20T09:09:54Z</time>
      </trkpt>
      <trkpt lat="44.92148" lon="6.72054">
        <ele>1899.98</ele>
        <time>2021-11-20T09:10:04Z</time>
      </trkpt>
      <trkpt lat="44.92144" lon="6.72062">
        <ele>1982.27</ele>
        <time>2021-11-20T09:10:13Z</time>
      </trkpt>
      <trkpt lat="44.9214" lon="6.72069">
        <ele>1983.96</ele>
        <time>2021-11-20T09:10:22Z</time>
      </trkpt>
      <trkpt lat="44.92135" lon="6.72076">
        <ele>1983.21</ele>
        <time>2021-11-20T09:10:32Z</time>
      </trkpt>
      <trkpt lat="44.9213" lon="6.72085">
        <ele>1986.72</ele>
        <time>2021-11-20T09:10:41Z</time>
      </trkpt>
      <trkpt lat="44.92125" lon="6.72091">
        <ele>1989.11</ele>
        <time>2021-11-20T09:10:51Z</time>
      </trkpt>
      <trkpt lat="44.92118" lon="6.72098">
        <ele>1990.68</ele>
        <time>2021-11-20T09:11:00Z</time>
      </trkpt>
      <trkpt lat="44.92113" lon="6.72105">
        <ele>1896.9</ele>
        <time>2021-11-20T09:11:09Z</time>
      </trkpt>
      <trkpt lat="44.92109" lon="6.72111">
        <ele>1993.32</ele>
        <time>2021-11-20T09:11:19Z</time>
      </trkpt>
      <trkpt lat="44.92104" lon="6.72117">
        <ele>1992.05</ele>
        <time>2021-11-20T09:11:29Z</time>
      </trkpt>
      <trkpt lat="44.92099" lon="6.72124">
        <ele>1996.21</ele>
        <time>2021-11-20T09:11:39Z</time>
      </trkpt>
      <trkpt lat="44.92094" lon="6.72131">
        <ele>1997.38</ele>
        <time>2021-11-20T09:11:48Z</time>
      </trkpt>
      <trkpt lat="44.92089" lon="6.72139">
        <ele>1996.54</ele>
        <time>2021-11-20T09:11:57Z</time>
      </trkpt>
      <trkpt lat="44.92084" lon="6.72146">
        <ele>1997.93</ele>
        <time>2021-11-20T09:12:07Z</time>
      </trkpt>
      <trkpt lat="44.92079" lon="6.72154">
        <ele>1999.27</ele>
        <time>2021-11-20T09:12:16Z</time>
      </trkpt>
      <trkpt lat="44.92074" lon="6.72161">
        <ele>1998.47</ele>
        <time>2021-11-20T09:12:26Z</time>
      </trkpt>
      <trkpt lat="44.92067" lon="6.72168">
        <ele>1997.46</ele>
        <time>2021-11-20T09:12:35Z</time>
      </trkpt>
      <trkpt lat="44.92059" lon="6.72174">
        <ele>1997.81</ele>
        <time>2021-11-20T09:12:44Z</time>
      </trkpt>
      <trkpt lat="44.92051" lon="6.72179">
        <ele>1996.05</ele>
        <time>2021-11-20T09:12:54Z</time>
      </trkpt>
      <trkpt lat="44.92043" lon="6.72184">
        <ele>1995.33</ele>
        <time>2021-11-20T09:13:03Z</time>
      </trkpt>
      <trkpt lat="44.92037" lon="6.72188">
        <ele>1998.64</ele>
        <time>2021-11-20T09:13:13Z</time>
      </trkpt>
      <trkpt lat="44.9203" lon="6.72193">
        <ele>1998.19</ele>
        <time>2021-11-20T09:13:23Z</time>
      </trkpt>
      <trkpt lat="44.92024" lon="6.72198">
        <ele>1997.84</ele>
        <time>2021-11-20T09:13:32Z</time>
      </trkpt>
      <trkpt lat="44.92017" lon="6.72203">
        <ele>1998.99</ele>
        <time>2021-11-20T09:13:41Z</time>
      </trkpt>
      <trkpt lat="44.9201" lon="6.72207">
        <ele>1999.23</ele>
        <time>2021-11-20T09:13:50Z</time>
      </trkpt>
      <trkpt lat="44.92003" lon="6.72209">
        <ele>2000.74</ele>
        <time>2021-11-20T09:13:59Z</time>
      </trkpt>
      <trkpt lat="44.91996" lon="6.72214">
        <ele>1997.75</ele>
        <time>2021-11-20T09:14:09Z</time>
      </trkpt>
      <trkpt lat="44.91987" lon="6.72219">
        <ele>1998.74</ele>
        <time>2021-11-20T09:14:19Z</time>
      </trkpt>
      <trkpt lat="44.9198" lon="6.72222">
        <ele>1996.16</ele>
        <time>2021-11-20T09:14:28Z</time>
      </trkpt>
      <trkpt lat="44.91973" lon="6.72225">
        <ele>1999.43</ele>
        <time>2021-11-20T09:14:38Z</time>
      </trkpt>
      <trkpt lat="44.91966" lon="6.72227">
        <ele>1999.16</ele>
        <time>2021-11-20T09:14:47Z</time>
      </trkpt>
      <trkpt lat="44.9196" lon="6.72231">
        <ele>1999.48</ele>
        <time>2021-11-20T09:14:57Z</time>
      </trkpt>
      <trkpt lat="44.91951" lon="6.72235">
        <ele>2000.43</ele>
        <time>2021-11-20T09:15:07Z</time>
      </trkpt>
      <trkpt lat="44.91941" lon="6.72238">
        <ele>2003.58</ele>
        <time>2021-11-20T09:15:16Z</time>
      </trkpt>
      <trkpt lat="44.91933" lon="6.72242">
        <ele>2005.42</ele>
        <time>2021-11-20T09:15:26Z</time>
      </trkpt>
      <trkpt lat="44.91927" lon="6.72242">
        <ele>2003.36</ele>
        <time>2021-11-20T09:15:35Z</time>
      </trkpt>
      <trkpt lat="44.91921" lon="6.72245">
        <ele>2004.08</ele>
        <time>2021-11-20T09:15:45Z</time>
      </trkpt>
      <trkpt lat="44.91916" lon="6.7225">
        <ele>2008.33</ele>
        <time>2021-11-20T09:15:54Z</time>
      </trkpt>
      <trkpt lat="44.9191" lon="6.72255">
        <ele>2006.79</ele>
        <time>2021-11-20T09:16:04Z</time>
      </trkpt>
      <trkpt lat="44.91903" lon="6.72258">
        <ele>2007</ele>
        <time>2021-11-20T09:16:13Z</time>
      </trkpt>
      <trkpt lat="44.91896" lon="6.72258">
        <ele>2004.59</ele>
        <time>2021-11-20T09:16:23Z</time>
      </trkpt>
      <trkpt lat="44.9189" lon="6.72258">
        <ele>2005.86</ele>
        <time>2021-11-20T09:16:32Z</time>
      </trkpt>
      <trkpt lat="44.91884" lon="6.7226">
        <ele>2006.58</ele>
        <time>2021-11-20T09:16:41Z</time>
      </trkpt>
      <trkpt lat="44.91876" lon="6.72265">
        <ele>2005.41</ele>
        <time>2021-11-20T09:16:52Z</time>
      </trkpt>
      <trkpt lat="44.91869" lon="6.72273">
        <ele>2006.16</ele>
        <time>2021-11-20T09:17:01Z</time>
      </trkpt>
      <trkpt lat="44.91864" lon="6.7228">
        <ele>2009.37</ele>
        <time>2021-11-20T09:17:10Z</time>
      </trkpt>
      <trkpt lat="44.91857" lon="6.72284">
        <ele>2010.34</ele>
        <time>2021-11-20T09:17:20Z</time>
      </trkpt>
      <trkpt lat="44.91851" lon="6.72286">
        <ele>2012.38</ele>
        <time>2021-11-20T09:17:30Z</time>
      </trkpt>
      <trkpt lat="44.91845" lon="6.72289">
        <ele>2009.74</ele>
        <time>2021-11-20T09:17:39Z</time>
      </trkpt>
      <trkpt lat="44.91838" lon="6.72292">
        <ele>2005.18</ele>
        <time>2021-11-20T09:17:48Z</time>
      </trkpt>
      <trkpt lat="44.91832" lon="6.72292">
        <ele>2007.62</ele>
        <time>2021-11-20T09:17:58Z</time>
      </trkpt>
      <trkpt lat="44.91826" lon="6.72295">
        <ele>2007.42</ele>
        <time>2021-11-20T09:18:07Z</time>
      </trkpt>
      <trkpt lat="44.9182" lon="6.72298">
        <ele>2011.62</ele>
        <time>2021-11-20T09:18:16Z</time>
      </trkpt>
      <trkpt lat="44.91814" lon="6.72303">
        <ele>2009.49</ele>
        <time>2021-11-20T09:18:26Z</time>
      </trkpt>
      <trkpt lat="44.91809" lon="6.72306">
        <ele>2008.86</ele>
        <time>2021-11-20T09:18:36Z</time>
      </trkpt>
      <trkpt lat="44.91802" lon="6.72309">
        <ele>2008.07</ele>
        <time>2021-11-20T09:18:45Z</time>
      </trkpt>
      <trkpt lat="44.91796" lon="6.72314">
        <ele>2013.59</ele>
        <time>2021-11-20T09:18:55Z</time>
      </trkpt>
      <trkpt lat="44.91791" lon="6.7232">
        <ele>2013.06</ele>
        <time>2021-11-20T09:19:04Z</time>
      </trkpt>
      <trkpt lat="44.91785" lon="6.72325">
        <ele>2017.4</ele>
        <time>2021-11-20T09:19:13Z</time>
      </trkpt>
      <trkpt lat="44.91778" lon="6.72328">
        <ele>2013.92</ele>
        <time>2021-11-20T09:19:23Z</time>
      </trkpt>
      <trkpt lat="44.91771" lon="6.7233">
        <ele>2012.99</ele>
        <time>2021-11-20T09:19:32Z</time>
      </trkpt>
      <trkpt lat="44.91765" lon="6.72333">
        <ele>2015.19</ele>
        <time>2021-11-20T09:19:42Z</time>
      </trkpt>
      <trkpt lat="44.91759" lon="6.72337">
        <ele>2020.67</ele>
        <time>2021-11-20T09:19:51Z</time>
      </trkpt>
      <trkpt lat="44.91752" lon="6.72341">
        <ele>2017.96</ele>
        <time>2021-11-20T09:20:01Z</time>
      </trkpt>
      <trkpt lat="44.91745" lon="6.72339">
        <ele>2009.9</ele>
        <time>2021-11-20T09:20:11Z</time>
      </trkpt>
      <trkpt lat="44.91744" lon="6.72337">
        <ele>2014.91</ele>
        <time>2021-11-20T09:20:21Z</time>
      </trkpt>
      <trkpt lat="44.91743" lon="6.72336">
        <ele>2016.24</ele>
        <time>2021-11-20T09:20:40Z</time>
      </trkpt>
      <trkpt lat="44.91743" lon="6.72335">
        <ele>2015.25</ele>
        <time>2021-11-20T09:20:50Z</time>
      </trkpt>
      <trkpt lat="44.91742" lon="6.72336">
        <ele>2011.8</ele>
        <time>2021-11-20T09:21:00Z</time>
      </trkpt>
      <trkpt lat="44.91741" lon="6.72336">
        <ele>2015.21</ele>
        <time>2021-11-20T09:22:23Z</time>
      </trkpt>
      <trkpt lat="44.9174" lon="6.72336">
        <ele>2018.33</ele>
        <time>2021-11-20T09:22:51Z</time>
      </trkpt>
      <trkpt lat="44.91739" lon="6.72336">
        <ele>2015.88</ele>
        <time>2021-11-20T09:23:01Z</time>
      </trkpt>
      <trkpt lat="44.91738" lon="6.72339">
        <ele>2020.18</ele>
        <time>2021-11-20T09:24:23Z</time>
      </trkpt>
      <trkpt lat="44.91735" lon="6.72342">
        <ele>2007.64</ele>
        <time>2021-11-20T09:24:33Z</time>
      </trkpt>
      <trkpt lat="44.91736" lon="6.72343">
        <ele>2012.7</ele>
        <time>2021-11-20T09:24:50Z</time>
      </trkpt>
      <trkpt lat="44.91732" lon="6.72347">
        <ele>2011.87</ele>
        <time>2021-11-20T09:25:00Z</time>
      </trkpt>
      <trkpt lat="44.91728" lon="6.7235">
        <ele>2010.44</ele>
        <time>2021-11-20T09:25:10Z</time>
      </trkpt>
      <trkpt lat="44.91724" lon="6.72354">
        <ele>2019.2</ele>
        <time>2021-11-20T09:25:20Z</time>
      </trkpt>
      <trkpt lat="44.91717" lon="6.72356">
        <ele>2015.2</ele>
        <time>2021-11-20T09:25:30Z</time>
      </trkpt>
      <trkpt lat="44.9171" lon="6.72358">
        <ele>2017.92</ele>
        <time>2021-11-20T09:25:40Z</time>
      </trkpt>
      <trkpt lat="44.91703" lon="6.72361">
        <ele>2021.97</ele>
        <time>2021-11-20T09:25:50Z</time>
      </trkpt>
      <trkpt lat="44.91696" lon="6.72364">
        <ele>2017.87</ele>
        <time>2021-11-20T09:26:00Z</time>
      </trkpt>
      <trkpt lat="44.91688" lon="6.72368">
        <ele>2021.75</ele>
        <time>2021-11-20T09:26:09Z</time>
      </trkpt>
      <trkpt lat="44.91682" lon="6.7237">
        <ele>2023.33</ele>
        <time>2021-11-20T09:26:19Z</time>
      </trkpt>
      <trkpt lat="44.91676" lon="6.7237">
        <ele>2017.56</ele>
        <time>2021-11-20T09:26:29Z</time>
      </trkpt>
      <trkpt lat="44.9167" lon="6.72373">
        <ele>2018.91</ele>
        <time>2021-11-20T09:26:39Z</time>
      </trkpt>
      <trkpt lat="44.91663" lon="6.72375">
        <ele>2028.9</ele>
        <time>2021-11-20T09:26:49Z</time>
      </trkpt>
      <trkpt lat="44.91654" lon="6.72375">
        <ele>2023.48</ele>
        <time>2021-11-20T09:26:59Z</time>
      </trkpt>
      <trkpt lat="44.91647" lon="6.72376">
        <ele>2022.19</ele>
        <time>2021-11-20T09:27:09Z</time>
      </trkpt>
      <trkpt lat="44.9164" lon="6.72377">
        <ele>2023.04</ele>
        <time>2021-11-20T09:27:18Z</time>
      </trkpt>
      <trkpt lat="44.91632" lon="6.72379">
        <ele>2029.36</ele>
        <time>2021-11-20T09:27:28Z</time>
      </trkpt>
      <trkpt lat="44.91625" lon="6.7238">
        <ele>2025.28</ele>
        <time>2021-11-20T09:27:38Z</time>
      </trkpt>
      <trkpt lat="44.91618" lon="6.72382">
        <ele>2031.24</ele>
        <time>2021-11-20T09:27:47Z</time>
      </trkpt>
      <trkpt lat="44.91611" lon="6.72385">
        <ele>2021.65</ele>
        <time>2021-11-20T09:27:56Z</time>
      </trkpt>
      <trkpt lat="44.91604" lon="6.72388">
        <ele>2032.85</ele>
        <time>2021-11-20T09:28:06Z</time>
      </trkpt>
      <trkpt lat="44.91597" lon="6.72393">
        <ele>2033.81</ele>
        <time>2021-11-20T09:28:16Z</time>
      </trkpt>
      <trkpt lat="44.91591" lon="6.724">
        <ele>2020.85</ele>
        <time>2021-11-20T09:28:25Z</time>
      </trkpt>
      <trkpt lat="44.91588" lon="6.72407">
        <ele>2027.78</ele>
        <time>2021-11-20T09:28:35Z</time>
      </trkpt>
      <trkpt lat="44.91585" lon="6.72416">
        <ele>2023.35</ele>
        <time>2021-11-20T09:28:44Z</time>
      </trkpt>
      <trkpt lat="44.91578" lon="6.72421">
        <ele>2021.75</ele>
        <time>2021-11-20T09:28:54Z</time>
      </trkpt>
      <trkpt lat="44.91578" lon="6.72421">
        <ele>2014.2</ele>
        <time>2021-11-20T09:29:06Z</time>
      </trkpt>
      <trkpt lat="44.91577" lon="6.72422">
        <ele>2014.49</ele>
        <time>2021-11-20T09:29:16Z</time>
      </trkpt>
      <trkpt lat="44.9157" lon="6.72426">
        <ele>2023.36</ele>
        <time>2021-11-20T09:29:25Z</time>
      </trkpt>
      <trkpt lat="44.91563" lon="6.72431">
        <ele>2013.41</ele>
        <time>2021-11-20T09:29:34Z</time>
      </trkpt>
      <trkpt lat="44.91556" lon="6.72419">
        <ele>2015.8</ele>
        <time>2021-11-20T09:29:45Z</time>
      </trkpt>
      <trkpt lat="44.91553" lon="6.72412">
        <ele>2021.38</ele>
        <time>2021-11-20T09:29:55Z</time>
      </trkpt>
      <trkpt lat="44.91549" lon="6.72409">
        <ele>2019.16</ele>
        <time>2021-11-20T09:30:04Z</time>
      </trkpt>
      <trkpt lat="44.91547" lon="6.72411">
        <ele>2025.58</ele>
        <time>2021-11-20T09:30:14Z</time>
      </trkpt>
      <trkpt lat="44.91544" lon="6.72409">
        <ele>2029.75</ele>
        <time>2021-11-20T09:30:24Z</time>
      </trkpt>
      <trkpt lat="44.91543" lon="6.72403">
        <ele>2025.65</ele>
        <time>2021-11-20T09:30:33Z</time>
      </trkpt>
      <trkpt lat="44.91542" lon="6.72397">
        <ele>2032.72</ele>
        <time>2021-11-20T09:30:43Z</time>
      </trkpt>
      <trkpt lat="44.91541" lon="6.7239">
        <ele>2032.62</ele>
        <time>2021-11-20T09:30:53Z</time>
      </trkpt>
      <trkpt lat="44.91535" lon="6.72383">
        <ele>2024.58</ele>
        <time>2021-11-20T09:31:03Z</time>
      </trkpt>
      <trkpt lat="44.91528" lon="6.72382">
        <ele>2030.59</ele>
        <time>2021-11-20T09:31:13Z</time>
      </trkpt>
      <trkpt lat="44.91523" lon="6.72384">
        <ele>2023.79</ele>
        <time>2021-11-20T09:31:23Z</time>
      </trkpt>
      <trkpt lat="44.9152" lon="6.72382">
        <ele>2025.43</ele>
        <time>2021-11-20T09:31:32Z</time>
      </trkpt>
      <trkpt lat="44.91518" lon="6.72377">
        <ele>2025.45</ele>
        <time>2021-11-20T09:31:41Z</time>
      </trkpt>
      <trkpt lat="44.91514" lon="6.72371">
        <ele>2026.75</ele>
        <time>2021-11-20T09:31:51Z</time>
      </trkpt>
      <trkpt lat="44.91513" lon="6.72368">
        <ele>2029.1</ele>
        <time>2021-11-20T09:32:01Z</time>
      </trkpt>
      <trkpt lat="44.91512" lon="6.72362">
        <ele>2027.61</ele>
        <time>2021-11-20T09:32:11Z</time>
      </trkpt>
      <trkpt lat="44.91505" lon="6.72362">
        <ele>2024.08</ele>
        <time>2021-11-20T09:32:21Z</time>
      </trkpt>
      <trkpt lat="44.91502" lon="6.72361">
        <ele>2024.96</ele>
        <time>2021-11-20T09:32:31Z</time>
      </trkpt>
      <trkpt lat="44.91498" lon="6.72358">
        <ele>2037.51</ele>
        <time>2021-11-20T09:32:41Z</time>
      </trkpt>
      <trkpt lat="44.91493" lon="6.72356">
        <ele>2038.56</ele>
        <time>2021-11-20T09:32:50Z</time>
      </trkpt>
      <trkpt lat="44.9149" lon="6.72355">
        <ele>2041.79</ele>
        <time>2021-11-20T09:33:00Z</time>
      </trkpt>
      <trkpt lat="44.91487" lon="6.72354">
        <ele>2042.71</ele>
        <time>2021-11-20T09:33:09Z</time>
      </trkpt>
      <trkpt lat="44.91482" lon="6.72353">
        <ele>2043.07</ele>
        <time>2021-11-20T09:33:19Z</time>
      </trkpt>
      <trkpt lat="44.9148" lon="6.72354">
        <ele>2045.34</ele>
        <time>2021-11-20T09:33:28Z</time>
      </trkpt>
      <trkpt lat="44.91475" lon="6.72354">
        <ele>2037.16</ele>
        <time>2021-11-20T09:33:37Z</time>
      </trkpt>
      <trkpt lat="44.9147" lon="6.72354">
        <ele>2039.22</ele>
        <time>2021-11-20T09:33:47Z</time>
      </trkpt>
      <trkpt lat="44.91463" lon="6.72352">
        <ele>2046.6</ele>
        <time>2021-11-20T09:33:57Z</time>
      </trkpt>
      <trkpt lat="44.91458" lon="6.72347">
        <ele>2036.19</ele>
        <time>2021-11-20T09:34:06Z</time>
      </trkpt>
      <trkpt lat="44.91452" lon="6.72344">
        <ele>2049.31</ele>
        <time>2021-11-20T09:34:16Z</time>
      </trkpt>
      <trkpt lat="44.91445" lon="6.72342">
        <ele>2051.22</ele>
        <time>2021-11-20T09:34:26Z</time>
      </trkpt>
      <trkpt lat="44.91441" lon="6.72341">
        <ele>2051.85</ele>
        <time>2021-11-20T09:34:35Z</time>
      </trkpt>
      <trkpt lat="44.91437" lon="6.72337">
        <ele>2054.46</ele>
        <time>2021-11-20T09:34:44Z</time>
      </trkpt>
      <trkpt lat="44.91432" lon="6.72332">
        <ele>2045.24</ele>
        <time>2021-11-20T09:34:54Z</time>
      </trkpt>
      <trkpt lat="44.91427" lon="6.72325">
        <ele>2055.57</ele>
        <time>2021-11-20T09:35:03Z</time>
      </trkpt>
      <trkpt lat="44.91422" lon="6.72317">
        <ele>2040.12</ele>
        <time>2021-11-20T09:35:13Z</time>
      </trkpt>
      <trkpt lat="44.91417" lon="6.72312">
        <ele>2039.05</ele>
        <time>2021-11-20T09:35:22Z</time>
      </trkpt>
      <trkpt lat="44.91412" lon="6.72306">
        <ele>2050.71</ele>
        <time>2021-11-20T09:35:32Z</time>
      </trkpt>
      <trkpt lat="44.91406" lon="6.72298">
        <ele>2039.37</ele>
        <time>2021-11-20T09:35:41Z</time>
      </trkpt>
      <trkpt lat="44.91401" lon="6.72293">
        <ele>2041.78</ele>
        <time>2021-11-20T09:35:50Z</time>
      </trkpt>
      <trkpt lat="44.91396" lon="6.72289">
        <ele>2046.83</ele>
        <time>2021-11-20T09:36:00Z</time>
      </trkpt>
      <trkpt lat="44.91391" lon="6.72282">
        <ele>2046.47</ele>
        <time>2021-11-20T09:36:10Z</time>
      </trkpt>
      <trkpt lat="44.91384" lon="6.72276">
        <ele>2058.84</ele>
        <time>2021-11-20T09:36:20Z</time>
      </trkpt>
      <trkpt lat="44.9138" lon="6.7227">
        <ele>2046.28</ele>
        <time>2021-11-20T09:36:29Z</time>
      </trkpt>
      <trkpt lat="44.91375" lon="6.72267">
        <ele>2051.75</ele>
        <time>2021-11-20T09:36:39Z</time>
      </trkpt>
      <trkpt lat="44.91367" lon="6.72261">
        <ele>2048.48</ele>
        <time>2021-11-20T09:36:48Z</time>
      </trkpt>
      <trkpt lat="44.9136" lon="6.72254">
        <ele>2031.98</ele>
        <time>2021-11-20T09:36:58Z</time>
      </trkpt>
      <trkpt lat="44.91356" lon="6.72248">
        <ele>2037.15</ele>
        <time>2021-11-20T09:37:08Z</time>
      </trkpt>
      <trkpt lat="44.91351" lon="6.72243">
        <ele>2047.21</ele>
        <time>2021-11-20T09:37:18Z</time>
      </trkpt>
      <trkpt lat="44.91348" lon="6.7224">
        <ele>2042.79</ele>
        <time>2021-11-20T09:37:28Z</time>
      </trkpt>
      <trkpt lat="44.91342" lon="6.72236">
        <ele>2046.52</ele>
        <time>2021-11-20T09:37:37Z</time>
      </trkpt>
      <trkpt lat="44.91339" lon="6.72232">
        <ele>2047.54</ele>
        <time>2021-11-20T09:37:47Z</time>
      </trkpt>
      <trkpt lat="44.91337" lon="6.72229">
        <ele>2049.69</ele>
        <time>2021-11-20T09:37:57Z</time>
      </trkpt>
      <trkpt lat="44.91333" lon="6.72224">
        <ele>2055.57</ele>
        <time>2021-11-20T09:38:07Z</time>
      </trkpt>
      <trkpt lat="44.91329" lon="6.72219">
        <ele>2053.52</ele>
        <time>2021-11-20T09:38:17Z</time>
      </trkpt>
      <trkpt lat="44.91327" lon="6.72213">
        <ele>2057.01</ele>
        <time>2021-11-20T09:38:27Z</time>
      </trkpt>
      <trkpt lat="44.91325" lon="6.72208">
        <ele>2050.22</ele>
        <time>2021-11-20T09:38:37Z</time>
      </trkpt>
      <trkpt lat="44.91323" lon="6.72203">
        <ele>2052.62</ele>
        <time>2021-11-20T09:38:48Z</time>
      </trkpt>
      <trkpt lat="44.9132" lon="6.722">
        <ele>2053.34</ele>
        <time>2021-11-20T09:38:57Z</time>
      </trkpt>
      <trkpt lat="44.91316" lon="6.72196">
        <ele>2056.43</ele>
        <time>2021-11-20T09:39:07Z</time>
      </trkpt>
      <trkpt lat="44.91311" lon="6.72187">
        <ele>2046.34</ele>
        <time>2021-11-20T09:39:17Z</time>
      </trkpt>
      <trkpt lat="44.91309" lon="6.72181">
        <ele>2054.73</ele>
        <time>2021-11-20T09:39:26Z</time>
      </trkpt>
      <trkpt lat="44.91306" lon="6.7218">
        <ele>2046.23</ele>
        <time>2021-11-20T09:39:36Z</time>
      </trkpt>
      <trkpt lat="44.91304" lon="6.72177">
        <ele>2058.51</ele>
        <time>2021-11-20T09:39:45Z</time>
      </trkpt>
      <trkpt lat="44.91301" lon="6.72174">
        <ele>2066.33</ele>
        <time>2021-11-20T09:39:55Z</time>
      </trkpt>
      <trkpt lat="44.91297" lon="6.7217">
        <ele>2054.37</ele>
        <time>2021-11-20T09:40:04Z</time>
      </trkpt>
      <trkpt lat="44.91293" lon="6.72166">
        <ele>2056.76</ele>
        <time>2021-11-20T09:40:14Z</time>
      </trkpt>
      <trkpt lat="44.91291" lon="6.72161">
        <ele>2068.26</ele>
        <time>2021-11-20T09:40:24Z</time>
      </trkpt>
      <trkpt lat="44.91288" lon="6.72158">
        <ele>2059.2</ele>
        <time>2021-11-20T09:40:34Z</time>
      </trkpt>
      <trkpt lat="44.91285" lon="6.72157">
        <ele>2057.5</ele>
        <time>2021-11-20T09:40:43Z</time>
      </trkpt>
      <trkpt lat="44.91282" lon="6.72156">
        <ele>2041.81</ele>
        <time>2021-11-20T09:40:53Z</time>
      </trkpt>
      <trkpt lat="44.91281" lon="6.72153">
        <ele>2068.7</ele>
        <time>2021-11-20T09:41:02Z</time>
      </trkpt>
      <trkpt lat="44.9128" lon="6.72149">
        <ele>2072.19</ele>
        <time>2021-11-20T09:41:12Z</time>
      </trkpt>
      <trkpt lat="44.91278" lon="6.72148">
        <ele>2060.63</ele>
        <time>2021-11-20T09:41:21Z</time>
      </trkpt>
      <trkpt lat="44.91276" lon="6.72147">
        <ele>2048.53</ele>
        <time>2021-11-20T09:41:30Z</time>
      </trkpt>
      <trkpt lat="44.91273" lon="6.72146">
        <ele>2063.51</ele>
        <time>2021-11-20T09:41:40Z</time>
      </trkpt>
      <trkpt lat="44.9127" lon="6.72142">
        <ele>2048.72</ele>
        <time>2021-11-20T09:41:49Z</time>
      </trkpt>
      <trkpt lat="44.91268" lon="6.7214">
        <ele>2068.07</ele>
        <time>2021-11-20T09:41:59Z</time>
      </trkpt>
      <trkpt lat="44.91265" lon="6.72138">
        <ele>2076.68</ele>
        <time>2021-11-20T09:42:09Z</time>
      </trkpt>
      <trkpt lat="44.91262" lon="6.72135">
        <ele>2063.82</ele>
        <time>2021-11-20T09:42:19Z</time>
      </trkpt>
      <trkpt lat="44.91259" lon="6.72131">
        <ele>2065.77</ele>
        <time>2021-11-20T09:42:29Z</time>
      </trkpt>
      <trkpt lat="44.91257" lon="6.72129">
        <ele>2065.16</ele>
        <time>2021-11-20T09:42:38Z</time>
      </trkpt>
      <trkpt lat="44.91256" lon="6.72128">
        <ele>2080.66</ele>
        <time>2021-11-20T09:42:49Z</time>
      </trkpt>
      <trkpt lat="44.91255" lon="6.72128">
        <ele>2086.67</ele>
        <time>2021-11-20T09:42:58Z</time>
      </trkpt>
      <trkpt lat="44.91253" lon="6.72126">
        <ele>2086.71</ele>
        <time>2021-11-20T09:43:09Z</time>
      </trkpt>
      <trkpt lat="44.91251" lon="6.72125">
        <ele>2087.75</ele>
        <time>2021-11-20T09:43:19Z</time>
      </trkpt>
      <trkpt lat="44.91246" lon="6.72121">
        <ele>2074.31</ele>
        <time>2021-11-20T09:43:29Z</time>
      </trkpt>
      <trkpt lat="44.91241" lon="6.72119">
        <ele>2087.52</ele>
        <time>2021-11-20T09:43:39Z</time>
      </trkpt>
      <trkpt lat="44.91238" lon="6.72116">
        <ele>2073.26</ele>
        <time>2021-11-20T09:43:49Z</time>
      </trkpt>
      <trkpt lat="44.91235" lon="6.72112">
        <ele>2072.84</ele>
        <time>2021-11-20T09:43:59Z</time>
      </trkpt>
      <trkpt lat="44.91235" lon="6.7211">
        <ele>2092.38</ele>
        <time>2021-11-20T09:44:09Z</time>
      </trkpt>
      <trkpt lat="44.91232" lon="6.72105">
        <ele>2075.54</ele>
        <time>2021-11-20T09:44:19Z</time>
      </trkpt>
      <trkpt lat="44.9123" lon="6.72103">
        <ele>2079.94</ele>
        <time>2021-11-20T09:44:29Z</time>
      </trkpt>
      <trkpt lat="44.91227" lon="6.72101">
        <ele>2094.63</ele>
        <time>2021-11-20T09:44:38Z</time>
      </trkpt>
      <trkpt lat="44.91223" lon="6.72098">
        <ele>2076.72</ele>
        <time>2021-11-20T09:44:48Z</time>
      </trkpt>
      <trkpt lat="44.91219" lon="6.72095">
        <ele>2094.61</ele>
        <time>2021-11-20T09:44:57Z</time>
      </trkpt>
      <trkpt lat="44.91216" lon="6.72092">
        <ele>2078.25</ele>
        <time>2021-11-20T09:45:07Z</time>
      </trkpt>
      <trkpt lat="44.91213" lon="6.72089">
        <ele>2092.93</ele>
        <time>2021-11-20T09:45:17Z</time>
      </trkpt>
      <trkpt lat="44.91209" lon="6.72085">
        <ele>2068.92</ele>
        <time>2021-11-20T09:45:26Z</time>
      </trkpt>
      <trkpt lat="44.91206" lon="6.72082">
        <ele>2089.16</ele>
        <time>2021-11-20T09:45:36Z</time>
      </trkpt>
      <trkpt lat="44.91203" lon="6.72079">
        <ele>2095.05</ele>
        <time>2021-11-20T09:45:45Z</time>
      </trkpt>
      <trkpt lat="44.912" lon="6.72074">
        <ele>2097.7</ele>
        <time>2021-11-20T09:45:55Z</time>
      </trkpt>
      <trkpt lat="44.91199" lon="6.72071">
        <ele>2099.58</ele>
        <time>2021-11-20T09:46:05Z</time>
      </trkpt>
      <trkpt lat="44.91195" lon="6.72067">
        <ele>2078.71</ele>
        <time>2021-11-20T09:46:14Z</time>
      </trkpt>
      <trkpt lat="44.91194" lon="6.72063">
        <ele>2080.72</ele>
        <time>2021-11-20T09:46:24Z</time>
      </trkpt>
      <trkpt lat="44.91193" lon="6.72061">
        <ele>2082.49</ele>
        <time>2021-11-20T09:46:35Z</time>
      </trkpt>
      <trkpt lat="44.91188" lon="6.72055">
        <ele>2084.41</ele>
        <time>2021-11-20T09:46:45Z</time>
      </trkpt>
      <trkpt lat="44.91187" lon="6.72052">
        <ele>2075.79</ele>
        <time>2021-11-20T09:46:55Z</time>
      </trkpt>
      <trkpt lat="44.91187" lon="6.72054">
        <ele>2082.28</ele>
        <time>2021-11-20T09:47:07Z</time>
      </trkpt>
      <trkpt lat="44.91185" lon="6.72053">
        <ele>2098.76</ele>
        <time>2021-11-20T09:47:17Z</time>
      </trkpt>
      <trkpt lat="44.91182" lon="6.72051">
        <ele>2107.44</ele>
        <time>2021-11-20T09:47:26Z</time>
      </trkpt>
      <trkpt lat="44.91177" lon="6.72045">
        <ele>2108.72</ele>
        <time>2021-11-20T09:47:36Z</time>
      </trkpt>
      <trkpt lat="44.91174" lon="6.72041">
        <ele>2092.04</ele>
        <time>2021-11-20T09:47:46Z</time>
      </trkpt>
      <trkpt lat="44.9117" lon="6.72038">
        <ele>2090.62</ele>
        <time>2021-11-20T09:47:56Z</time>
      </trkpt>
      <trkpt lat="44.91167" lon="6.72033">
        <ele>2111.5</ele>
        <time>2021-11-20T09:48:05Z</time>
      </trkpt>
      <trkpt lat="44.91162" lon="6.72027">
        <ele>2096.12</ele>
        <time>2021-11-20T09:48:15Z</time>
      </trkpt>
      <trkpt lat="44.9116" lon="6.72023">
        <ele>2112.62</ele>
        <time>2021-11-20T09:48:25Z</time>
      </trkpt>
      <trkpt lat="44.91157" lon="6.72019">
        <ele>2097.37</ele>
        <time>2021-11-20T09:48:35Z</time>
      </trkpt>
      <trkpt lat="44.9115" lon="6.72013">
        <ele>2091.42</ele>
        <time>2021-11-20T09:48:45Z</time>
      </trkpt>
      <trkpt lat="44.91147" lon="6.72011">
        <ele>2113.79</ele>
        <time>2021-11-20T09:48:55Z</time>
      </trkpt>
      <trkpt lat="44.91142" lon="6.72007">
        <ele>2092.59</ele>
        <time>2021-11-20T09:49:05Z</time>
      </trkpt>
      <trkpt lat="44.91138" lon="6.72001">
        <ele>2113.89</ele>
        <time>2021-11-20T09:49:14Z</time>
      </trkpt>
      <trkpt lat="44.91135" lon="6.71996">
        <ele>2112.56</ele>
        <time>2021-11-20T09:49:24Z</time>
      </trkpt>
      <trkpt lat="44.91132" lon="6.71994">
        <ele>2113.7</ele>
        <time>2021-11-20T09:49:34Z</time>
      </trkpt>
      <trkpt lat="44.91129" lon="6.7199">
        <ele>2094.18</ele>
        <time>2021-11-20T09:49:44Z</time>
      </trkpt>
      <trkpt lat="44.91125" lon="6.71983">
        <ele>2094.04</ele>
        <time>2021-11-20T09:49:53Z</time>
      </trkpt>
      <trkpt lat="44.91124" lon="6.71977">
        <ele>2096.02</ele>
        <time>2021-11-20T09:50:03Z</time>
      </trkpt>
      <trkpt lat="44.91123" lon="6.71979">
        <ele>2111.72</ele>
        <time>2021-11-20T09:50:12Z</time>
      </trkpt>
      <trkpt lat="44.91122" lon="6.71978">
        <ele>2118.97</ele>
        <time>2021-11-20T09:50:44Z</time>
      </trkpt>
      <trkpt lat="44.91117" lon="6.71976">
        <ele>2097.38</ele>
        <time>2021-11-20T09:50:54Z</time>
      </trkpt>
      <trkpt lat="44.91111" lon="6.71976">
        <ele>2109.18</ele>
        <time>2021-11-20T09:51:03Z</time>
      </trkpt>
      <trkpt lat="44.91106" lon="6.71972">
        <ele>2092.75</ele>
        <time>2021-11-20T09:51:13Z</time>
      </trkpt>
      <trkpt lat="44.911" lon="6.71969">
        <ele>2114.92</ele>
        <time>2021-11-20T09:51:23Z</time>
      </trkpt>
      <trkpt lat="44.91098" lon="6.71968">
        <ele>2086.51</ele>
        <time>2021-11-20T09:51:32Z</time>
      </trkpt>
      <trkpt lat="44.91091" lon="6.71967">
        <ele>2095.82</ele>
        <time>2021-11-20T09:51:42Z</time>
      </trkpt>
      <trkpt lat="44.91084" lon="6.71968">
        <ele>2110.75</ele>
        <time>2021-11-20T09:51:52Z</time>
      </trkpt>
      <trkpt lat="44.91079" lon="6.71969">
        <ele>2080.72</ele>
        <time>2021-11-20T09:52:02Z</time>
      </trkpt>
      <trkpt lat="44.91074" lon="6.71967">
        <ele>2109.54</ele>
        <time>2021-11-20T09:52:12Z</time>
      </trkpt>
      <trkpt lat="44.91069" lon="6.71966">
        <ele>2098.4</ele>
        <time>2021-11-20T09:52:21Z</time>
      </trkpt>
      <trkpt lat="44.91062" lon="6.71965">
        <ele>2093.25</ele>
        <time>2021-11-20T09:52:31Z</time>
      </trkpt>
      <trkpt lat="44.9105" lon="6.71966">
        <ele>2119.27</ele>
        <time>2021-11-20T09:52:41Z</time>
      </trkpt>
      <trkpt lat="44.91045" lon="6.71968">
        <ele>2111.33</ele>
        <time>2021-11-20T09:52:50Z</time>
      </trkpt>
      <trkpt lat="44.91039" lon="6.7197">
        <ele>2115.47</ele>
        <time>2021-11-20T09:52:59Z</time>
      </trkpt>
      <trkpt lat="44.91034" lon="6.71969">
        <ele>2114.82</ele>
        <time>2021-11-20T09:53:09Z</time>
      </trkpt>
      <trkpt lat="44.91028" lon="6.71965">
        <ele>2098.5</ele>
        <time>2021-11-20T09:53:18Z</time>
      </trkpt>
      <trkpt lat="44.91024" lon="6.71961">
        <ele>2100</ele>
        <time>2021-11-20T09:53:28Z</time>
      </trkpt>
      <trkpt lat="44.91023" lon="6.71959">
        <ele>2100.54</ele>
        <time>2021-11-20T09:53:37Z</time>
      </trkpt>
      <trkpt lat="44.91021" lon="6.71954">
        <ele>2100.78</ele>
        <time>2021-11-20T09:53:47Z</time>
      </trkpt>
      <trkpt lat="44.91021" lon="6.71952">
        <ele>2124.45</ele>
        <time>2021-11-20T09:53:57Z</time>
      </trkpt>
      <trkpt lat="44.91019" lon="6.71949">
        <ele>2127.28</ele>
        <time>2021-11-20T09:54:06Z</time>
      </trkpt>
      <trkpt lat="44.91017" lon="6.71945">
        <ele>2130.14</ele>
        <time>2021-11-20T09:54:16Z</time>
      </trkpt>
      <trkpt lat="44.91014" lon="6.71943">
        <ele>2107.96</ele>
        <time>2021-11-20T09:54:25Z</time>
      </trkpt>
      <trkpt lat="44.91012" lon="6.71938">
        <ele>2109.11</ele>
        <time>2021-11-20T09:54:35Z</time>
      </trkpt>
      <trkpt lat="44.91011" lon="6.71934">
        <ele>2132.16</ele>
        <time>2021-11-20T09:54:45Z</time>
      </trkpt>
      <trkpt lat="44.91008" lon="6.71927">
        <ele>2107.96</ele>
        <time>2021-11-20T09:54:54Z</time>
      </trkpt>
      <trkpt lat="44.91005" lon="6.71924">
        <ele>2108.59</ele>
        <time>2021-11-20T09:55:04Z</time>
      </trkpt>
      <trkpt lat="44.91001" lon="6.71921">
        <ele>2111.75</ele>
        <time>2021-11-20T09:55:13Z</time>
      </trkpt>
      <trkpt lat="44.90996" lon="6.71917">
        <ele>2109.7</ele>
        <time>2021-11-20T09:55:23Z</time>
      </trkpt>
      <trkpt lat="44.90993" lon="6.71914">
        <ele>2127.08</ele>
        <time>2021-11-20T09:55:33Z</time>
      </trkpt>
      <trkpt lat="44.90991" lon="6.71912">
        <ele>2136.29</ele>
        <time>2021-11-20T09:55:43Z</time>
      </trkpt>
      <trkpt lat="44.90989" lon="6.71908">
        <ele>2115.76</ele>
        <time>2021-11-20T09:55:52Z</time>
      </trkpt>
      <trkpt lat="44.90985" lon="6.71905">
        <ele>2109.7</ele>
        <time>2021-11-20T09:56:02Z</time>
      </trkpt>
      <trkpt lat="44.90981" lon="6.719">
        <ele>2113.98</ele>
        <time>2021-11-20T09:56:12Z</time>
      </trkpt>
      <trkpt lat="44.90978" lon="6.71896">
        <ele>2138.91</ele>
        <time>2021-11-20T09:56:22Z</time>
      </trkpt>
      <trkpt lat="44.90976" lon="6.71893">
        <ele>2139.87</ele>
        <time>2021-11-20T09:56:31Z</time>
      </trkpt>
      <trkpt lat="44.90974" lon="6.71888">
        <ele>2140.43</ele>
        <time>2021-11-20T09:56:41Z</time>
      </trkpt>
      <trkpt lat="44.90971" lon="6.71884">
        <ele>2116</ele>
        <time>2021-11-20T09:56:51Z</time>
      </trkpt>
      <trkpt lat="44.9097" lon="6.71879">
        <ele>2114.62</ele>
        <time>2021-11-20T09:57:01Z</time>
      </trkpt>
      <trkpt lat="44.90968" lon="6.71875">
        <ele>2115.47</ele>
        <time>2021-11-20T09:57:11Z</time>
      </trkpt>
      <trkpt lat="44.90965" lon="6.71872">
        <ele>2141.55</ele>
        <time>2021-11-20T09:57:20Z</time>
      </trkpt>
      <trkpt lat="44.90963" lon="6.7187">
        <ele>2142.73</ele>
        <time>2021-11-20T09:57:29Z</time>
      </trkpt>
      <trkpt lat="44.9096" lon="6.71868">
        <ele>2118.61</ele>
        <time>2021-11-20T09:57:40Z</time>
      </trkpt>
      <trkpt lat="44.90956" lon="6.71866">
        <ele>2119.14</ele>
        <time>2021-11-20T09:57:49Z</time>
      </trkpt>
      <trkpt lat="44.90955" lon="6.71864">
        <ele>2147.47</ele>
        <time>2021-11-20T09:57:59Z</time>
      </trkpt>
      <trkpt lat="44.90952" lon="6.71858">
        <ele>2106.63</ele>
        <time>2021-11-20T09:58:09Z</time>
      </trkpt>
      <trkpt lat="44.90951" lon="6.71853">
        <ele>2133.69</ele>
        <time>2021-11-20T09:58:19Z</time>
      </trkpt>
      <trkpt lat="44.90948" lon="6.7185">
        <ele>2122.72</ele>
        <time>2021-11-20T09:58:29Z</time>
      </trkpt>
      <trkpt lat="44.90946" lon="6.71845">
        <ele>2146.1</ele>
        <time>2021-11-20T09:58:39Z</time>
      </trkpt>
      <trkpt lat="44.90943" lon="6.71845">
        <ele>2149.81</ele>
        <time>2021-11-20T09:58:48Z</time>
      </trkpt>
      <trkpt lat="44.90939" lon="6.7184">
        <ele>2123.46</ele>
        <time>2021-11-20T09:58:58Z</time>
      </trkpt>
      <trkpt lat="44.90937" lon="6.71838">
        <ele>2123.19</ele>
        <time>2021-11-20T09:59:08Z</time>
      </trkpt>
      <trkpt lat="44.90935" lon="6.71837">
        <ele>2150.8</ele>
        <time>2021-11-20T09:59:17Z</time>
      </trkpt>
      <trkpt lat="44.90932" lon="6.71836">
        <ele>2124.7</ele>
        <time>2021-11-20T09:59:26Z</time>
      </trkpt>
      <trkpt lat="44.90929" lon="6.71834">
        <ele>2153.41</ele>
        <time>2021-11-20T09:59:36Z</time>
      </trkpt>
      <trkpt lat="44.90926" lon="6.71831">
        <ele>2119.77</ele>
        <time>2021-11-20T09:59:45Z</time>
      </trkpt>
      <trkpt lat="44.90923" lon="6.71824">
        <ele>2123.51</ele>
        <time>2021-11-20T09:59:55Z</time>
      </trkpt>
      <trkpt lat="44.90923" lon="6.7182">
        <ele>2125.75</ele>
        <time>2021-11-20T10:00:04Z</time>
      </trkpt>
      <trkpt lat="44.90922" lon="6.71815">
        <ele>2147.04</ele>
        <time>2021-11-20T10:00:14Z</time>
      </trkpt>
      <trkpt lat="44.90921" lon="6.71812">
        <ele>2133.8</ele>
        <time>2021-11-20T10:00:24Z</time>
      </trkpt>
      <trkpt lat="44.90919" lon="6.71808">
        <ele>2128.94</ele>
        <time>2021-11-20T10:00:33Z</time>
      </trkpt>
      <trkpt lat="44.90919" lon="6.71803">
        <ele>2127.92</ele>
        <time>2021-11-20T10:00:43Z</time>
      </trkpt>
      <trkpt lat="44.90923" lon="6.71801">
        <ele>2153.67</ele>
        <time>2021-11-20T10:00:53Z</time>
      </trkpt>
      <trkpt lat="44.90927" lon="6.71799">
        <ele>2154.84</ele>
        <time>2021-11-20T10:01:02Z</time>
      </trkpt>
      <trkpt lat="44.9093" lon="6.71796">
        <ele>2130.14</ele>
        <time>2021-11-20T10:01:12Z</time>
      </trkpt>
      <trkpt lat="44.90933" lon="6.71793">
        <ele>2130.51</ele>
        <time>2021-11-20T10:01:22Z</time>
      </trkpt>
      <trkpt lat="44.90936" lon="6.71791">
        <ele>2131.06</ele>
        <time>2021-11-20T10:01:32Z</time>
      </trkpt>
      <trkpt lat="44.9094" lon="6.71788">
        <ele>2131.13</ele>
        <time>2021-11-20T10:01:42Z</time>
      </trkpt>
      <trkpt lat="44.90942" lon="6.71786">
        <ele>2132.28</ele>
        <time>2021-11-20T10:01:52Z</time>
      </trkpt>
      <trkpt lat="44.90944" lon="6.71786">
        <ele>2131.72</ele>
        <time>2021-11-20T10:02:01Z</time>
      </trkpt>
      <trkpt lat="44.90946" lon="6.71782">
        <ele>2171.31</ele>
        <time>2021-11-20T10:02:11Z</time>
      </trkpt>
      <trkpt lat="44.90945" lon="6.71779">
        <ele>2203.86</ele>
        <time>2021-11-20T10:02:21Z</time>
      </trkpt>
      <trkpt lat="44.90943" lon="6.71774">
        <ele>2191.27</ele>
        <time>2021-11-20T10:02:31Z</time>
      </trkpt>
      <trkpt lat="44.9094" lon="6.71766">
        <ele>2188.21</ele>
        <time>2021-11-20T10:02:41Z</time>
      </trkpt>
      <trkpt lat="44.90939" lon="6.71762">
        <ele>2187.74</ele>
        <time>2021-11-20T10:02:50Z</time>
      </trkpt>
      <trkpt lat="44.90937" lon="6.7176">
        <ele>2198.63</ele>
        <time>2021-11-20T10:02:59Z</time>
      </trkpt>
      <trkpt lat="44.90935" lon="6.71756">
        <ele>2191.92</ele>
        <time>2021-11-20T10:03:08Z</time>
      </trkpt>
      <trkpt lat="44.90933" lon="6.71749">
        <ele>2190.82</ele>
        <time>2021-11-20T10:03:18Z</time>
      </trkpt>
      <trkpt lat="44.90931" lon="6.71744">
        <ele>2206.91</ele>
        <time>2021-11-20T10:03:28Z</time>
      </trkpt>
      <trkpt lat="44.90928" lon="6.7174">
        <ele>2213.32</ele>
        <time>2021-11-20T10:03:38Z</time>
      </trkpt>
      <trkpt lat="44.90927" lon="6.71736">
        <ele>2215.13</ele>
        <time>2021-11-20T10:03:47Z</time>
      </trkpt>
      <trkpt lat="44.90926" lon="6.71732">
        <ele>2210.6</ele>
        <time>2021-11-20T10:03:57Z</time>
      </trkpt>
      <trkpt lat="44.90925" lon="6.71726">
        <ele>2214.32</ele>
        <time>2021-11-20T10:04:06Z</time>
      </trkpt>
      <trkpt lat="44.90926" lon="6.71723">
        <ele>2214.64</ele>
        <time>2021-11-20T10:04:15Z</time>
      </trkpt>
      <trkpt lat="44.90929" lon="6.71719">
        <ele>2215.22</ele>
        <time>2021-11-20T10:04:25Z</time>
      </trkpt>
      <trkpt lat="44.90932" lon="6.71714">
        <ele>2215.92</ele>
        <time>2021-11-20T10:04:35Z</time>
      </trkpt>
      <trkpt lat="44.90935" lon="6.71709">
        <ele>2216.4</ele>
        <time>2021-11-20T10:04:45Z</time>
      </trkpt>
      <trkpt lat="44.90936" lon="6.71705">
        <ele>2217.68</ele>
        <time>2021-11-20T10:04:54Z</time>
      </trkpt>
      <trkpt lat="44.90932" lon="6.71702">
        <ele>2214.07</ele>
        <time>2021-11-20T10:05:03Z</time>
      </trkpt>
      <trkpt lat="44.90928" lon="6.71699">
        <ele>2214.34</ele>
        <time>2021-11-20T10:05:13Z</time>
      </trkpt>
      <trkpt lat="44.90924" lon="6.71694">
        <ele>2214.93</ele>
        <time>2021-11-20T10:05:23Z</time>
      </trkpt>
      <trkpt lat="44.9092" lon="6.71686">
        <ele>2220.5</ele>
        <time>2021-11-20T10:05:33Z</time>
      </trkpt>
      <trkpt lat="44.90917" lon="6.71679">
        <ele>2215.71</ele>
        <time>2021-11-20T10:05:43Z</time>
      </trkpt>
      <trkpt lat="44.90915" lon="6.71673">
        <ele>2216.23</ele>
        <time>2021-11-20T10:05:53Z</time>
      </trkpt>
      <trkpt lat="44.90911" lon="6.71668">
        <ele>2216.59</ele>
        <time>2021-11-20T10:06:03Z</time>
      </trkpt>
      <trkpt lat="44.90907" lon="6.71661">
        <ele>2217.53</ele>
        <time>2021-11-20T10:06:13Z</time>
      </trkpt>
      <trkpt lat="44.90904" lon="6.71656">
        <ele>2218.16</ele>
        <time>2021-11-20T10:06:23Z</time>
      </trkpt>
      <trkpt lat="44.90899" lon="6.71651">
        <ele>2219.52</ele>
        <time>2021-11-20T10:06:32Z</time>
      </trkpt>
      <trkpt lat="44.90896" lon="6.71647">
        <ele>2220.8</ele>
        <time>2021-11-20T10:06:42Z</time>
      </trkpt>
      <trkpt lat="44.90892" lon="6.71641">
        <ele>2219.27</ele>
        <time>2021-11-20T10:06:53Z</time>
      </trkpt>
      <trkpt lat="44.9089" lon="6.71632">
        <ele>2231.82</ele>
        <time>2021-11-20T10:07:02Z</time>
      </trkpt>
      <trkpt lat="44.9089" lon="6.71629">
        <ele>2232.5</ele>
        <time>2021-11-20T10:07:13Z</time>
      </trkpt>
      <trkpt lat="44.9089" lon="6.71631">
        <ele>2232.96</ele>
        <time>2021-11-20T10:07:24Z</time>
      </trkpt>
      <trkpt lat="44.9089" lon="6.71633">
        <ele>2234.86</ele>
        <time>2021-11-20T10:07:34Z</time>
      </trkpt>
      <trkpt lat="44.90891" lon="6.71634">
        <ele>2236.14</ele>
        <time>2021-11-20T10:07:44Z</time>
      </trkpt>
      <trkpt lat="44.90891" lon="6.71636">
        <ele>2236.42</ele>
        <time>2021-11-20T10:07:54Z</time>
      </trkpt>
      <trkpt lat="44.90891" lon="6.71634">
        <ele>2236.28</ele>
        <time>2021-11-20T10:09:06Z</time>
      </trkpt>
      <trkpt lat="44.90892" lon="6.71634">
        <ele>2236.55</ele>
        <time>2021-11-20T10:10:03Z</time>
      </trkpt>
      <trkpt lat="44.90892" lon="6.71632">
        <ele>2236.69</ele>
        <time>2021-11-20T10:10:30Z</time>
      </trkpt>
      <trkpt lat="44.90893" lon="6.71633">
        <ele>2235.69</ele>
        <time>2021-11-20T10:11:42Z</time>
      </trkpt>
      <trkpt lat="44.90892" lon="6.71634">
        <ele>2231.16</ele>
        <time>2021-11-20T10:16:36Z</time>
      </trkpt>
      <trkpt lat="44.90893" lon="6.71633">
        <ele>2232.91</ele>
        <time>2021-11-20T10:19:04Z</time>
      </trkpt>
      <trkpt lat="44.90895" lon="6.7163">
        <ele>2233.03</ele>
        <time>2021-11-20T10:19:14Z</time>
      </trkpt>
      <trkpt lat="44.90896" lon="6.7163">
        <ele>2232.76</ele>
        <time>2021-11-20T10:19:38Z</time>
      </trkpt>
      <trkpt lat="44.90895" lon="6.7163">
        <ele>2232.25</ele>
        <time>2021-11-20T10:19:48Z</time>
      </trkpt>
      <trkpt lat="44.90893" lon="6.7163">
        <ele>2232.51</ele>
        <time>2021-11-20T10:19:57Z</time>
      </trkpt>
      <trkpt lat="44.90884" lon="6.71628">
        <ele>2231.75</ele>
        <time>2021-11-20T10:20:06Z</time>
      </trkpt>
      <trkpt lat="44.90874" lon="6.71624">
        <ele>2232.35</ele>
        <time>2021-11-20T10:20:16Z</time>
      </trkpt>
      <trkpt lat="44.90867" lon="6.71622">
        <ele>2231.85</ele>
        <time>2021-11-20T10:20:25Z</time>
      </trkpt>
      <trkpt lat="44.90861" lon="6.71621">
        <ele>2231.82</ele>
        <time>2021-11-20T10:20:35Z</time>
      </trkpt>
      <trkpt lat="44.90854" lon="6.71617">
        <ele>2235.44</ele>
        <time>2021-11-20T10:20:44Z</time>
      </trkpt>
      <trkpt lat="44.90847" lon="6.71613">
        <ele>2235.05</ele>
        <time>2021-11-20T10:20:53Z</time>
      </trkpt>
      <trkpt lat="44.9084" lon="6.71611">
        <ele>2236.54</ele>
        <time>2021-11-20T10:21:03Z</time>
      </trkpt>
      <trkpt lat="44.90834" lon="6.71608">
        <ele>2237.69</ele>
        <time>2021-11-20T10:21:12Z</time>
      </trkpt>
      <trkpt lat="44.90827" lon="6.71605">
        <ele>2237.15</ele>
        <time>2021-11-20T10:21:21Z</time>
      </trkpt>
      <trkpt lat="44.9082" lon="6.71602">
        <ele>2238.31</ele>
        <time>2021-11-20T10:21:30Z</time>
      </trkpt>
      <trkpt lat="44.90812" lon="6.71598">
        <ele>2235.37</ele>
        <time>2021-11-20T10:21:40Z</time>
      </trkpt>
      <trkpt lat="44.90807" lon="6.71597">
        <ele>2235.78</ele>
        <time>2021-11-20T10:21:49Z</time>
      </trkpt>
      <trkpt lat="44.90801" lon="6.71591">
        <ele>2239.69</ele>
        <time>2021-11-20T10:21:58Z</time>
      </trkpt>
      <trkpt lat="44.90794" lon="6.71585">
        <ele>2240.61</ele>
        <time>2021-11-20T10:22:07Z</time>
      </trkpt>
      <trkpt lat="44.9079" lon="6.71581">
        <ele>2238.24</ele>
        <time>2021-11-20T10:22:17Z</time>
      </trkpt>
      <trkpt lat="44.9078" lon="6.71576">
        <ele>2239.07</ele>
        <time>2021-11-20T10:22:26Z</time>
      </trkpt>
      <trkpt lat="44.90774" lon="6.7157">
        <ele>2237.11</ele>
        <time>2021-11-20T10:22:36Z</time>
      </trkpt>
      <trkpt lat="44.90767" lon="6.71565">
        <ele>2239.42</ele>
        <time>2021-11-20T10:22:45Z</time>
      </trkpt>
      <trkpt lat="44.90762" lon="6.7156">
        <ele>2238.73</ele>
        <time>2021-11-20T10:22:55Z</time>
      </trkpt>
      <trkpt lat="44.90755" lon="6.71557">
        <ele>2243.59</ele>
        <time>2021-11-20T10:23:04Z</time>
      </trkpt>
      <trkpt lat="44.90748" lon="6.71554">
        <ele>2240.17</ele>
        <time>2021-11-20T10:23:14Z</time>
      </trkpt>
      <trkpt lat="44.90742" lon="6.7155">
        <ele>2240.73</ele>
        <time>2021-11-20T10:23:23Z</time>
      </trkpt>
      <trkpt lat="44.90735" lon="6.71547">
        <ele>2241.2</ele>
        <time>2021-11-20T10:23:33Z</time>
      </trkpt>
      <trkpt lat="44.90729" lon="6.71544">
        <ele>2246.16</ele>
        <time>2021-11-20T10:23:43Z</time>
      </trkpt>
      <trkpt lat="44.90723" lon="6.71541">
        <ele>2247.2</ele>
        <time>2021-11-20T10:23:52Z</time>
      </trkpt>
      <trkpt lat="44.90718" lon="6.71537">
        <ele>2243.93</ele>
        <time>2021-11-20T10:24:02Z</time>
      </trkpt>
      <trkpt lat="44.90712" lon="6.71533">
        <ele>2249.29</ele>
        <time>2021-11-20T10:24:12Z</time>
      </trkpt>
      <trkpt lat="44.90706" lon="6.7153">
        <ele>2244.54</ele>
        <time>2021-11-20T10:24:21Z</time>
      </trkpt>
      <trkpt lat="44.90697" lon="6.71524">
        <ele>2245.85</ele>
        <time>2021-11-20T10:24:30Z</time>
      </trkpt>
      <trkpt lat="44.90691" lon="6.71522">
        <ele>2246.55</ele>
        <time>2021-11-20T10:24:40Z</time>
      </trkpt>
      <trkpt lat="44.90687" lon="6.7152">
        <ele>2244.82</ele>
        <time>2021-11-20T10:24:50Z</time>
      </trkpt>
      <trkpt lat="44.90685" lon="6.71515">
        <ele>2250.71</ele>
        <time>2021-11-20T10:24:59Z</time>
      </trkpt>
      <trkpt lat="44.90683" lon="6.71511">
        <ele>2247.25</ele>
        <time>2021-11-20T10:25:08Z</time>
      </trkpt>
      <trkpt lat="44.90682" lon="6.71503">
        <ele>2252.8</ele>
        <time>2021-11-20T10:25:18Z</time>
      </trkpt>
      <trkpt lat="44.90679" lon="6.71499">
        <ele>2248.34</ele>
        <time>2021-11-20T10:25:28Z</time>
      </trkpt>
      <trkpt lat="44.90674" lon="6.7149">
        <ele>2247.94</ele>
        <time>2021-11-20T10:25:37Z</time>
      </trkpt>
      <trkpt lat="44.9067" lon="6.71483">
        <ele>2249.1</ele>
        <time>2021-11-20T10:25:47Z</time>
      </trkpt>
      <trkpt lat="44.90669" lon="6.71477">
        <ele>2244.82</ele>
        <time>2021-11-20T10:25:57Z</time>
      </trkpt>
      <trkpt lat="44.90668" lon="6.71473">
        <ele>2236.53</ele>
        <time>2021-11-20T10:26:07Z</time>
      </trkpt>
      <trkpt lat="44.90666" lon="6.71468">
        <ele>2247.82</ele>
        <time>2021-11-20T10:26:17Z</time>
      </trkpt>
      <trkpt lat="44.90664" lon="6.71465">
        <ele>2248.54</ele>
        <time>2021-11-20T10:26:27Z</time>
      </trkpt>
      <trkpt lat="44.90661" lon="6.71458">
        <ele>2248.24</ele>
        <time>2021-11-20T10:26:37Z</time>
      </trkpt>
      <trkpt lat="44.90659" lon="6.7145">
        <ele>2251.34</ele>
        <time>2021-11-20T10:26:47Z</time>
      </trkpt>
      <trkpt lat="44.90658" lon="6.71445">
        <ele>2254.59</ele>
        <time>2021-11-20T10:26:56Z</time>
      </trkpt>
      <trkpt lat="44.90656" lon="6.71442">
        <ele>2249.45</ele>
        <time>2021-11-20T10:27:05Z</time>
      </trkpt>
      <trkpt lat="44.90655" lon="6.71438">
        <ele>2251.58</ele>
        <time>2021-11-20T10:27:14Z</time>
      </trkpt>
      <trkpt lat="44.90654" lon="6.71432">
        <ele>2257.41</ele>
        <time>2021-11-20T10:27:25Z</time>
      </trkpt>
      <trkpt lat="44.90652" lon="6.71428">
        <ele>2258.07</ele>
        <time>2021-11-20T10:27:35Z</time>
      </trkpt>
      <trkpt lat="44.90648" lon="6.71422">
        <ele>2247.81</ele>
        <time>2021-11-20T10:27:45Z</time>
      </trkpt>
      <trkpt lat="44.90647" lon="6.71418">
        <ele>2252.28</ele>
        <time>2021-11-20T10:27:55Z</time>
      </trkpt>
      <trkpt lat="44.90645" lon="6.71413">
        <ele>2236.69</ele>
        <time>2021-11-20T10:28:05Z</time>
      </trkpt>
      <trkpt lat="44.90642" lon="6.71405">
        <ele>2252.89</ele>
        <time>2021-11-20T10:28:14Z</time>
      </trkpt>
      <trkpt lat="44.90641" lon="6.71399">
        <ele>2252</ele>
        <time>2021-11-20T10:28:24Z</time>
      </trkpt>
      <trkpt lat="44.90639" lon="6.71396">
        <ele>2251.57</ele>
        <time>2021-11-20T10:28:34Z</time>
      </trkpt>
      <trkpt lat="44.90637" lon="6.71393">
        <ele>2246.08</ele>
        <time>2021-11-20T10:28:44Z</time>
      </trkpt>
      <trkpt lat="44.90634" lon="6.71388">
        <ele>2242.01</ele>
        <time>2021-11-20T10:28:53Z</time>
      </trkpt>
      <trkpt lat="44.90631" lon="6.71381">
        <ele>2253.43</ele>
        <time>2021-11-20T10:29:03Z</time>
      </trkpt>
      <trkpt lat="44.90627" lon="6.71374">
        <ele>2256.06</ele>
        <time>2021-11-20T10:29:12Z</time>
      </trkpt>
      <trkpt lat="44.90624" lon="6.71369">
        <ele>2258.51</ele>
        <time>2021-11-20T10:29:22Z</time>
      </trkpt>
      <trkpt lat="44.90622" lon="6.71364">
        <ele>2245.47</ele>
        <time>2021-11-20T10:29:32Z</time>
      </trkpt>
      <trkpt lat="44.90618" lon="6.71358">
        <ele>2266</ele>
        <time>2021-11-20T10:29:42Z</time>
      </trkpt>
      <trkpt lat="44.90614" lon="6.71352">
        <ele>2253.95</ele>
        <time>2021-11-20T10:29:52Z</time>
      </trkpt>
      <trkpt lat="44.90609" lon="6.71345">
        <ele>2260.45</ele>
        <time>2021-11-20T10:30:01Z</time>
      </trkpt>
      <trkpt lat="44.90605" lon="6.71339">
        <ele>2259.46</ele>
        <time>2021-11-20T10:30:11Z</time>
      </trkpt>
      <trkpt lat="44.906" lon="6.71333">
        <ele>2259.69</ele>
        <time>2021-11-20T10:30:20Z</time>
      </trkpt>
      <trkpt lat="44.90595" lon="6.71329">
        <ele>2266.5</ele>
        <time>2021-11-20T10:30:30Z</time>
      </trkpt>
      <trkpt lat="44.90591" lon="6.71324">
        <ele>2255.09</ele>
        <time>2021-11-20T10:30:40Z</time>
      </trkpt>
      <trkpt lat="44.90588" lon="6.71322">
        <ele>2268.62</ele>
        <time>2021-11-20T10:30:50Z</time>
      </trkpt>
      <trkpt lat="44.90585" lon="6.71323">
        <ele>2273.24</ele>
        <time>2021-11-20T10:31:00Z</time>
      </trkpt>
      <trkpt lat="44.90581" lon="6.71324">
        <ele>2270.84</ele>
        <time>2021-11-20T10:31:10Z</time>
      </trkpt>
      <trkpt lat="44.90579" lon="6.71321">
        <ele>2266.65</ele>
        <time>2021-11-20T10:31:19Z</time>
      </trkpt>
      <trkpt lat="44.90575" lon="6.71318">
        <ele>2277.07</ele>
        <time>2021-11-20T10:31:28Z</time>
      </trkpt>
      <trkpt lat="44.90569" lon="6.71313">
        <ele>2278.88</ele>
        <time>2021-11-20T10:31:37Z</time>
      </trkpt>
      <trkpt lat="44.90566" lon="6.71306">
        <ele>2268.7</ele>
        <time>2021-11-20T10:31:47Z</time>
      </trkpt>
      <trkpt lat="44.90563" lon="6.71295">
        <ele>2279.08</ele>
        <time>2021-11-20T10:31:57Z</time>
      </trkpt>
      <trkpt lat="44.90559" lon="6.71293">
        <ele>2270.38</ele>
        <time>2021-11-20T10:32:07Z</time>
      </trkpt>
      <trkpt lat="44.90558" lon="6.71285">
        <ele>2271.75</ele>
        <time>2021-11-20T10:32:16Z</time>
      </trkpt>
      <trkpt lat="44.90553" lon="6.71282">
        <ele>2281.61</ele>
        <time>2021-11-20T10:32:26Z</time>
      </trkpt>
      <trkpt lat="44.90549" lon="6.71281">
        <ele>2272.62</ele>
        <time>2021-11-20T10:32:36Z</time>
      </trkpt>
      <trkpt lat="44.90544" lon="6.71279">
        <ele>2285.15</ele>
        <time>2021-11-20T10:32:46Z</time>
      </trkpt>
      <trkpt lat="44.9054" lon="6.71278">
        <ele>2285.18</ele>
        <time>2021-11-20T10:32:55Z</time>
      </trkpt>
      <trkpt lat="44.90536" lon="6.71276">
        <ele>2285.74</ele>
        <time>2021-11-20T10:33:05Z</time>
      </trkpt>
      <trkpt lat="44.90531" lon="6.71274">
        <ele>2285.51</ele>
        <time>2021-11-20T10:33:14Z</time>
      </trkpt>
      <trkpt lat="44.90524" lon="6.71272">
        <ele>2275.01</ele>
        <time>2021-11-20T10:33:24Z</time>
      </trkpt>
      <trkpt lat="44.90521" lon="6.71271">
        <ele>2275.39</ele>
        <time>2021-11-20T10:33:33Z</time>
      </trkpt>
      <trkpt lat="44.90517" lon="6.71271">
        <ele>2275.78</ele>
        <time>2021-11-20T10:33:43Z</time>
      </trkpt>
      <trkpt lat="44.90515" lon="6.7127">
        <ele>2276.65</ele>
        <time>2021-11-20T10:33:53Z</time>
      </trkpt>
      <trkpt lat="44.90515" lon="6.71267">
        <ele>2288.59</ele>
        <time>2021-11-20T10:34:03Z</time>
      </trkpt>
      <trkpt lat="44.90514" lon="6.71263">
        <ele>2293.17</ele>
        <time>2021-11-20T10:34:13Z</time>
      </trkpt>
      <trkpt lat="44.90512" lon="6.71258">
        <ele>2279.97</ele>
        <time>2021-11-20T10:34:22Z</time>
      </trkpt>
      <trkpt lat="44.90509" lon="6.71254">
        <ele>2288.67</ele>
        <time>2021-11-20T10:34:32Z</time>
      </trkpt>
      <trkpt lat="44.90506" lon="6.71253">
        <ele>2278.41</ele>
        <time>2021-11-20T10:34:42Z</time>
      </trkpt>
      <trkpt lat="44.905" lon="6.71252">
        <ele>2277.82</ele>
        <time>2021-11-20T10:34:52Z</time>
      </trkpt>
      <trkpt lat="44.90497" lon="6.71252">
        <ele>2278.92</ele>
        <time>2021-11-20T10:35:01Z</time>
      </trkpt>
      <trkpt lat="44.90495" lon="6.71252">
        <ele>2292.59</ele>
        <time>2021-11-20T10:35:11Z</time>
      </trkpt>
      <trkpt lat="44.90492" lon="6.71254">
        <ele>2293.96</ele>
        <time>2021-11-20T10:35:21Z</time>
      </trkpt>
      <trkpt lat="44.90489" lon="6.71253">
        <ele>2295.13</ele>
        <time>2021-11-20T10:35:31Z</time>
      </trkpt>
      <trkpt lat="44.90485" lon="6.7125">
        <ele>2262.71</ele>
        <time>2021-11-20T10:35:40Z</time>
      </trkpt>
      <trkpt lat="44.90482" lon="6.71247">
        <ele>2282.89</ele>
        <time>2021-11-20T10:35:51Z</time>
      </trkpt>
      <trkpt lat="44.90478" lon="6.71245">
        <ele>2287.91</ele>
        <time>2021-11-20T10:36:00Z</time>
      </trkpt>
      <trkpt lat="44.90476" lon="6.71242">
        <ele>2284.07</ele>
        <time>2021-11-20T10:36:10Z</time>
      </trkpt>
      <trkpt lat="44.90474" lon="6.71239">
        <ele>2295.33</ele>
        <time>2021-11-20T10:36:20Z</time>
      </trkpt>
      <trkpt lat="44.90471" lon="6.71234">
        <ele>2276.25</ele>
        <time>2021-11-20T10:36:29Z</time>
      </trkpt>
      <trkpt lat="44.90468" lon="6.7123">
        <ele>2268.11</ele>
        <time>2021-11-20T10:36:38Z</time>
      </trkpt>
      <trkpt lat="44.90466" lon="6.71225">
        <ele>2291.94</ele>
        <time>2021-11-20T10:36:48Z</time>
      </trkpt>
      <trkpt lat="44.90464" lon="6.71221">
        <ele>2242.57</ele>
        <time>2021-11-20T10:36:58Z</time>
      </trkpt>
      <trkpt lat="44.90461" lon="6.71217">
        <ele>2282.17</ele>
        <time>2021-11-20T10:37:08Z</time>
      </trkpt>
      <trkpt lat="44.90457" lon="6.71212">
        <ele>2292.93</ele>
        <time>2021-11-20T10:37:18Z</time>
      </trkpt>
      <trkpt lat="44.90455" lon="6.71211">
        <ele>2277.62</ele>
        <time>2021-11-20T10:37:27Z</time>
      </trkpt>
      <trkpt lat="44.90449" lon="6.71213">
        <ele>2280.21</ele>
        <time>2021-11-20T10:37:38Z</time>
      </trkpt>
      <trkpt lat="44.90446" lon="6.71215">
        <ele>2260.83</ele>
        <time>2021-11-20T10:37:47Z</time>
      </trkpt>
      <trkpt lat="44.90441" lon="6.71217">
        <ele>2264.35</ele>
        <time>2021-11-20T10:37:58Z</time>
      </trkpt>
      <trkpt lat="44.90438" lon="6.71215">
        <ele>2284.52</ele>
        <time>2021-11-20T10:38:08Z</time>
      </trkpt>
      <trkpt lat="44.90436" lon="6.71212">
        <ele>2280.54</ele>
        <time>2021-11-20T10:38:18Z</time>
      </trkpt>
      <trkpt lat="44.90434" lon="6.71207">
        <ele>2298.97</ele>
        <time>2021-11-20T10:38:28Z</time>
      </trkpt>
      <trkpt lat="44.90432" lon="6.71202">
        <ele>2286.19</ele>
        <time>2021-11-20T10:38:38Z</time>
      </trkpt>
      <trkpt lat="44.90432" lon="6.712">
        <ele>2231.44</ele>
        <time>2021-11-20T10:38:48Z</time>
      </trkpt>
      <trkpt lat="44.90432" lon="6.71195">
        <ele>2255.78</ele>
        <time>2021-11-20T10:38:58Z</time>
      </trkpt>
      <trkpt lat="44.90432" lon="6.71187">
        <ele>2220.94</ele>
        <time>2021-11-20T10:39:08Z</time>
      </trkpt>
      <trkpt lat="44.90432" lon="6.71181">
        <ele>2218.84</ele>
        <time>2021-11-20T10:39:17Z</time>
      </trkpt>
      <trkpt lat="44.90432" lon="6.71177">
        <ele>2189.23</ele>
        <time>2021-11-20T10:39:27Z</time>
      </trkpt>
      <trkpt lat="44.90431" lon="6.71173">
        <ele>2241.71</ele>
        <time>2021-11-20T10:39:37Z</time>
      </trkpt>
      <trkpt lat="44.90431" lon="6.71166">
        <ele>2234.06</ele>
        <time>2021-11-20T10:39:46Z</time>
      </trkpt>
      <trkpt lat="44.9043" lon="6.7116">
        <ele>2220.7</ele>
        <time>2021-11-20T10:39:56Z</time>
      </trkpt>
      <trkpt lat="44.90427" lon="6.71157">
        <ele>2237.81</ele>
        <time>2021-11-20T10:40:05Z</time>
      </trkpt>
      <trkpt lat="44.90425" lon="6.71154">
        <ele>2224.15</ele>
        <time>2021-11-20T10:40:15Z</time>
      </trkpt>
      <trkpt lat="44.90423" lon="6.71151">
        <ele>2238.76</ele>
        <time>2021-11-20T10:40:25Z</time>
      </trkpt>
      <trkpt lat="44.90421" lon="6.71148">
        <ele>2239.5</ele>
        <time>2021-11-20T10:40:35Z</time>
      </trkpt>
      <trkpt lat="44.90419" lon="6.71142">
        <ele>2264.13</ele>
        <time>2021-11-20T10:40:45Z</time>
      </trkpt>
      <trkpt lat="44.90419" lon="6.71139">
        <ele>2226.08</ele>
        <time>2021-11-20T10:40:55Z</time>
      </trkpt>
      <trkpt lat="44.90417" lon="6.71134">
        <ele>2272.31</ele>
        <time>2021-11-20T10:41:05Z</time>
      </trkpt>
      <trkpt lat="44.90417" lon="6.71131">
        <ele>2289.7</ele>
        <time>2021-11-20T10:41:14Z</time>
      </trkpt>
      <trkpt lat="44.90415" lon="6.71127">
        <ele>2304.41</ele>
        <time>2021-11-20T10:41:24Z</time>
      </trkpt>
      <trkpt lat="44.90415" lon="6.71123">
        <ele>2313.83</ele>
        <time>2021-11-20T10:41:35Z</time>
      </trkpt>
      <trkpt lat="44.90414" lon="6.71119">
        <ele>2315.72</ele>
        <time>2021-11-20T10:41:45Z</time>
      </trkpt>
      <trkpt lat="44.90411" lon="6.71116">
        <ele>2315.33</ele>
        <time>2021-11-20T10:41:54Z</time>
      </trkpt>
      <trkpt lat="44.90408" lon="6.71115">
        <ele>2276.79</ele>
        <time>2021-11-20T10:42:04Z</time>
      </trkpt>
      <trkpt lat="44.90406" lon="6.71116">
        <ele>2294.32</ele>
        <time>2021-11-20T10:42:13Z</time>
      </trkpt>
      <trkpt lat="44.90402" lon="6.71118">
        <ele>2315.01</ele>
        <time>2021-11-20T10:42:23Z</time>
      </trkpt>
      <trkpt lat="44.90399" lon="6.71122">
        <ele>2314.04</ele>
        <time>2021-11-20T10:42:33Z</time>
      </trkpt>
      <trkpt lat="44.90397" lon="6.71124">
        <ele>2295.16</ele>
        <time>2021-11-20T10:42:42Z</time>
      </trkpt>
      <trkpt lat="44.90395" lon="6.71127">
        <ele>2288.94</ele>
        <time>2021-11-20T10:42:52Z</time>
      </trkpt>
      <trkpt lat="44.90393" lon="6.7113">
        <ele>2285.83</ele>
        <time>2021-11-20T10:43:02Z</time>
      </trkpt>
      <trkpt lat="44.9039" lon="6.71134">
        <ele>2279.78</ele>
        <time>2021-11-20T10:43:11Z</time>
      </trkpt>
      <trkpt lat="44.90387" lon="6.71132">
        <ele>2291.61</ele>
        <time>2021-11-20T10:43:21Z</time>
      </trkpt>
      <trkpt lat="44.90383" lon="6.71132">
        <ele>2297.02</ele>
        <time>2021-11-20T10:43:30Z</time>
      </trkpt>
      <trkpt lat="44.90382" lon="6.71137">
        <ele>2283.03</ele>
        <time>2021-11-20T10:43:39Z</time>
      </trkpt>
      <trkpt lat="44.90379" lon="6.7114">
        <ele>2317.81</ele>
        <time>2021-11-20T10:43:49Z</time>
      </trkpt>
      <trkpt lat="44.90377" lon="6.71141">
        <ele>2298.16</ele>
        <time>2021-11-20T10:43:58Z</time>
      </trkpt>
      <trkpt lat="44.90373" lon="6.71143">
        <ele>2298.28</ele>
        <time>2021-11-20T10:44:08Z</time>
      </trkpt>
      <trkpt lat="44.9037" lon="6.71145">
        <ele>2324.72</ele>
        <time>2021-11-20T10:44:18Z</time>
      </trkpt>
      <trkpt lat="44.90366" lon="6.71149">
        <ele>2320.38</ele>
        <time>2021-11-20T10:44:27Z</time>
      </trkpt>
      <trkpt lat="44.90364" lon="6.7115">
        <ele>2325.55</ele>
        <time>2021-11-20T10:44:36Z</time>
      </trkpt>
      <trkpt lat="44.90361" lon="6.71152">
        <ele>2298.69</ele>
        <time>2021-11-20T10:44:46Z</time>
      </trkpt>
      <trkpt lat="44.90358" lon="6.71155">
        <ele>2301.71</ele>
        <time>2021-11-20T10:44:55Z</time>
      </trkpt>
      <trkpt lat="44.90356" lon="6.71158">
        <ele>2318.48</ele>
        <time>2021-11-20T10:45:05Z</time>
      </trkpt>
      <trkpt lat="44.90354" lon="6.7116">
        <ele>2284.35</ele>
        <time>2021-11-20T10:45:14Z</time>
      </trkpt>
      <trkpt lat="44.90353" lon="6.71165">
        <ele>2287.32</ele>
        <time>2021-11-20T10:45:24Z</time>
      </trkpt>
      <trkpt lat="44.90352" lon="6.71169">
        <ele>2271.3</ele>
        <time>2021-11-20T10:45:33Z</time>
      </trkpt>
      <trkpt lat="44.9035" lon="6.71173">
        <ele>2294.1</ele>
        <time>2021-11-20T10:45:43Z</time>
      </trkpt>
      <trkpt lat="44.9035" lon="6.71178">
        <ele>2259.89</ele>
        <time>2021-11-20T10:45:52Z</time>
      </trkpt>
      <trkpt lat="44.9035" lon="6.71181">
        <ele>2280.25</ele>
        <time>2021-11-20T10:46:02Z</time>
      </trkpt>
      <trkpt lat="44.90349" lon="6.71186">
        <ele>2288.68</ele>
        <time>2021-11-20T10:46:12Z</time>
      </trkpt>
      <trkpt lat="44.90348" lon="6.71189">
        <ele>2294.22</ele>
        <time>2021-11-20T10:46:22Z</time>
      </trkpt>
      <trkpt lat="44.90344" lon="6.71192">
        <ele>2321.28</ele>
        <time>2021-11-20T10:46:32Z</time>
      </trkpt>
      <trkpt lat="44.90341" lon="6.71194">
        <ele>2296.84</ele>
        <time>2021-11-20T10:46:41Z</time>
      </trkpt>
      <trkpt lat="44.90338" lon="6.71195">
        <ele>2296.28</ele>
        <time>2021-11-20T10:46:51Z</time>
      </trkpt>
      <trkpt lat="44.90335" lon="6.71196">
        <ele>2306.41</ele>
        <time>2021-11-20T10:47:01Z</time>
      </trkpt>
      <trkpt lat="44.90331" lon="6.71197">
        <ele>2310.44</ele>
        <time>2021-11-20T10:47:11Z</time>
      </trkpt>
      <trkpt lat="44.90328" lon="6.71196">
        <ele>2310.89</ele>
        <time>2021-11-20T10:47:21Z</time>
      </trkpt>
      <trkpt lat="44.90325" lon="6.71196">
        <ele>2340.12</ele>
        <time>2021-11-20T10:47:31Z</time>
      </trkpt>
      <trkpt lat="44.90321" lon="6.71196">
        <ele>2299.54</ele>
        <time>2021-11-20T10:47:40Z</time>
      </trkpt>
      <trkpt lat="44.90317" lon="6.71195">
        <ele>2328.7</ele>
        <time>2021-11-20T10:47:50Z</time>
      </trkpt>
      <trkpt lat="44.90314" lon="6.71194">
        <ele>2340.65</ele>
        <time>2021-11-20T10:48:00Z</time>
      </trkpt>
      <trkpt lat="44.90311" lon="6.71193">
        <ele>2308.9</ele>
        <time>2021-11-20T10:48:10Z</time>
      </trkpt>
      <trkpt lat="44.90308" lon="6.7119">
        <ele>2313.6</ele>
        <time>2021-11-20T10:48:20Z</time>
      </trkpt>
      <trkpt lat="44.90308" lon="6.71188">
        <ele>2315.74</ele>
        <time>2021-11-20T10:48:30Z</time>
      </trkpt>
      <trkpt lat="44.9031" lon="6.71184">
        <ele>2347.39</ele>
        <time>2021-11-20T10:48:39Z</time>
      </trkpt>
      <trkpt lat="44.90311" lon="6.71179">
        <ele>2347.87</ele>
        <time>2021-11-20T10:48:49Z</time>
      </trkpt>
      <trkpt lat="44.9031" lon="6.71173">
        <ele>2319.2</ele>
        <time>2021-11-20T10:48:59Z</time>
      </trkpt>
      <trkpt lat="44.90309" lon="6.71169">
        <ele>2342.66</ele>
        <time>2021-11-20T10:49:09Z</time>
      </trkpt>
      <trkpt lat="44.90308" lon="6.71164">
        <ele>2350.4</ele>
        <time>2021-11-20T10:49:19Z</time>
      </trkpt>
      <trkpt lat="44.90305" lon="6.7116">
        <ele>2321.79</ele>
        <time>2021-11-20T10:49:29Z</time>
      </trkpt>
      <trkpt lat="44.90301" lon="6.71155">
        <ele>2345.57</ele>
        <time>2021-11-20T10:49:39Z</time>
      </trkpt>
      <trkpt lat="44.90299" lon="6.71152">
        <ele>2354.53</ele>
        <time>2021-11-20T10:49:48Z</time>
      </trkpt>
      <trkpt lat="44.90294" lon="6.7115">
        <ele>2323.22</ele>
        <time>2021-11-20T10:49:57Z</time>
      </trkpt>
      <trkpt lat="44.9029" lon="6.71148">
        <ele>2352.77</ele>
        <time>2021-11-20T10:50:07Z</time>
      </trkpt>
      <trkpt lat="44.90286" lon="6.71148">
        <ele>2330.38</ele>
        <time>2021-11-20T10:50:17Z</time>
      </trkpt>
      <trkpt lat="44.90285" lon="6.71148">
        <ele>2322.85</ele>
        <time>2021-11-20T10:50:27Z</time>
      </trkpt>
      <trkpt lat="44.90285" lon="6.71147">
        <ele>2322.22</ele>
        <time>2021-11-20T10:51:08Z</time>
      </trkpt>
      <trkpt lat="44.90285" lon="6.71146">
        <ele>2322.76</ele>
        <time>2021-11-20T10:51:18Z</time>
      </trkpt>
      <trkpt lat="44.90287" lon="6.71146">
        <ele>2321.91</ele>
        <time>2021-11-20T10:51:28Z</time>
      </trkpt>
      <trkpt lat="44.90287" lon="6.71145">
        <ele>2322.72</ele>
        <time>2021-11-20T10:51:43Z</time>
      </trkpt>
      <trkpt lat="44.90286" lon="6.71146">
        <ele>2352.57</ele>
        <time>2021-11-20T10:51:53Z</time>
      </trkpt>
      <trkpt lat="44.90287" lon="6.71146">
        <ele>2330.35</ele>
        <time>2021-11-20T10:52:28Z</time>
      </trkpt>
      <trkpt lat="44.90288" lon="6.71146">
        <ele>2322.82</ele>
        <time>2021-11-20T10:52:39Z</time>
      </trkpt>
      <trkpt lat="44.90288" lon="6.71147">
        <ele>2352.42</ele>
        <time>2021-11-20T10:53:00Z</time>
      </trkpt>
      <trkpt lat="44.90287" lon="6.71147">
        <ele>2353.11</ele>
        <time>2021-11-20T10:53:10Z</time>
      </trkpt>
      <trkpt lat="44.90287" lon="6.71148">
        <ele>2360.3</ele>
        <time>2021-11-20T10:53:46Z</time>
      </trkpt>
      <trkpt lat="44.90289" lon="6.71152">
        <ele>2334.44</ele>
        <time>2021-11-20T10:53:56Z</time>
      </trkpt>
      <trkpt lat="44.90287" lon="6.7115">
        <ele>2360.09</ele>
        <time>2021-11-20T10:54:05Z</time>
      </trkpt>
      <trkpt lat="44.90287" lon="6.71147">
        <ele>2360.12</ele>
        <time>2021-11-20T10:54:15Z</time>
      </trkpt>
      <trkpt lat="44.90288" lon="6.71146">
        <ele>2355.18</ele>
        <time>2021-11-20T10:54:25Z</time>
      </trkpt>
      <trkpt lat="44.90287" lon="6.71145">
        <ele>2360.88</ele>
        <time>2021-11-20T10:54:42Z</time>
      </trkpt>
      <trkpt lat="44.90286" lon="6.71146">
        <ele>2334.53</ele>
        <time>2021-11-20T10:55:00Z</time>
      </trkpt>
      <trkpt lat="44.90286" lon="6.71148">
        <ele>2334.41</ele>
        <time>2021-11-20T10:55:10Z</time>
      </trkpt>
      <trkpt lat="44.90286" lon="6.71147">
        <ele>2359.37</ele>
        <time>2021-11-20T10:56:45Z</time>
      </trkpt>
      <trkpt lat="44.90287" lon="6.71146">
        <ele>2399.34</ele>
        <time>2021-11-20T10:58:29Z</time>
      </trkpt>
      <trkpt lat="44.90287" lon="6.71146">
        <ele>2360.69</ele>
        <time>2021-11-20T10:59:53Z</time>
      </trkpt>
      <trkpt lat="44.90288" lon="6.71146">
        <ele>2335.82</ele>
        <time>2021-11-20T11:00:03Z</time>
      </trkpt>
      <trkpt lat="44.90289" lon="6.71147">
        <ele>2362.74</ele>
        <time>2021-11-20T11:00:21Z</time>
      </trkpt>
      <trkpt lat="44.90289" lon="6.71147">
        <ele>2362.09</ele>
        <time>2021-11-20T11:00:57Z</time>
      </trkpt>
      <trkpt lat="44.90288" lon="6.71147">
        <ele>2363.27</ele>
        <time>2021-11-20T11:05:59Z</time>
      </trkpt>
      <trkpt lat="44.90289" lon="6.71146">
        <ele>2364.02</ele>
        <time>2021-11-20T11:07:09Z</time>
      </trkpt>
      <trkpt lat="44.90288" lon="6.71147">
        <ele>2362.43</ele>
        <time>2021-11-20T11:11:09Z</time>
      </trkpt>
      <trkpt lat="44.90289" lon="6.71146">
        <ele>2362.73</ele>
        <time>2021-11-20T11:13:41Z</time>
      </trkpt>
      <trkpt lat="44.90288" lon="6.71145">
        <ele>2362.72</ele>
        <time>2021-11-20T11:15:41Z</time>
      </trkpt>
      <trkpt lat="44.90289" lon="6.71145">
        <ele>2363.29</ele>
        <time>2021-11-20T11:15:58Z</time>
      </trkpt>
      <trkpt lat="44.90288" lon="6.71145">
        <ele>2363.59</ele>
        <time>2021-11-20T11:16:09Z</time>
      </trkpt>
      <trkpt lat="44.90288" lon="6.71146">
        <ele>2362.96</ele>
        <time>2021-11-20T11:17:17Z</time>
      </trkpt>
      <trkpt lat="44.90287" lon="6.71146">
        <ele>2362</ele>
        <time>2021-11-20T11:18:20Z</time>
      </trkpt>
      <trkpt lat="44.90288" lon="6.71147">
        <ele>2361.15</ele>
        <time>2021-11-20T11:19:06Z</time>
      </trkpt>
      <trkpt lat="44.90288" lon="6.71148">
        <ele>2360.35</ele>
        <time>2021-11-20T11:19:17Z</time>
      </trkpt>
      <trkpt lat="44.90288" lon="6.71149">
        <ele>2360.42</ele>
        <time>2021-11-20T11:19:29Z</time>
      </trkpt>
      <trkpt lat="44.90287" lon="6.7115">
        <ele>2336.31</ele>
        <time>2021-11-20T11:19:42Z</time>
      </trkpt>
      <trkpt lat="44.90286" lon="6.7115">
        <ele>2334.23</ele>
        <time>2021-11-20T11:20:04Z</time>
      </trkpt>
      <trkpt lat="44.90285" lon="6.7115">
        <ele>2333.15</ele>
        <time>2021-11-20T11:20:22Z</time>
      </trkpt>
      <trkpt lat="44.90285" lon="6.71148">
        <ele>2358.83</ele>
        <time>2021-11-20T11:22:44Z</time>
      </trkpt>
      <trkpt lat="44.90287" lon="6.71149">
        <ele>2359.2</ele>
        <time>2021-11-20T11:23:08Z</time>
      </trkpt>
      <trkpt lat="44.90286" lon="6.71146">
        <ele>2358.55</ele>
        <time>2021-11-20T11:23:20Z</time>
      </trkpt>
      <trkpt lat="44.90285" lon="6.71144">
        <ele>2334.37</ele>
        <time>2021-11-20T11:23:30Z</time>
      </trkpt>
      <trkpt lat="44.90286" lon="6.71143">
        <ele>2334.48</ele>
        <time>2021-11-20T11:23:40Z</time>
      </trkpt>
      <trkpt lat="44.90286" lon="6.71145">
        <ele>2334.45</ele>
        <time>2021-11-20T11:23:50Z</time>
      </trkpt>
      <trkpt lat="44.90285" lon="6.71146">
        <ele>2333.81</ele>
        <time>2021-11-20T11:24:00Z</time>
      </trkpt>
      <trkpt lat="44.90285" lon="6.71147">
        <ele>2333.14</ele>
        <time>2021-11-20T11:24:17Z</time>
      </trkpt>
      <trkpt lat="44.90285" lon="6.71149">
        <ele>2332.93</ele>
        <time>2021-11-20T11:24:39Z</time>
      </trkpt>
      <trkpt lat="44.90285" lon="6.71148">
        <ele>2359.11</ele>
        <time>2021-11-20T11:25:13Z</time>
      </trkpt>
      <trkpt lat="44.90285" lon="6.71146">
        <ele>2334.36</ele>
        <time>2021-11-20T11:25:23Z</time>
      </trkpt>
      <trkpt lat="44.90285" lon="6.71148">
        <ele>2360.75</ele>
        <time>2021-11-20T11:26:34Z</time>
      </trkpt>
      <trkpt lat="44.90286" lon="6.71148">
        <ele>2361</ele>
        <time>2021-11-20T11:26:44Z</time>
      </trkpt>
      <trkpt lat="44.903" lon="6.71151">
        <ele>2357.71</ele>
        <time>2021-11-20T11:26:54Z</time>
      </trkpt>
      <trkpt lat="44.90314" lon="6.7118">
        <ele>2354</ele>
        <time>2021-11-20T11:27:04Z</time>
      </trkpt>
      <trkpt lat="44.9032" lon="6.71171">
        <ele>2346.34</ele>
        <time>2021-11-20T11:27:14Z</time>
      </trkpt>
      <trkpt lat="44.90321" lon="6.71171">
        <ele>2328.91</ele>
        <time>2021-11-20T11:27:24Z</time>
      </trkpt>
      <trkpt lat="44.90322" lon="6.71171">
        <ele>2346.13</ele>
        <time>2021-11-20T11:28:15Z</time>
      </trkpt>
      <trkpt lat="44.90325" lon="6.7117">
        <ele>2345.18</ele>
        <time>2021-11-20T11:28:53Z</time>
      </trkpt>
      <trkpt lat="44.90341" lon="6.71171">
        <ele>2338.11</ele>
        <time>2021-11-20T11:29:02Z</time>
      </trkpt>
      <trkpt lat="44.90366" lon="6.71135">
        <ele>2334.32</ele>
        <time>2021-11-20T11:29:11Z</time>
      </trkpt>
      <trkpt lat="44.90365" lon="6.71132">
        <ele>2306.53</ele>
        <time>2021-11-20T11:29:21Z</time>
      </trkpt>
      <trkpt lat="44.90366" lon="6.71131">
        <ele>2318.96</ele>
        <time>2021-11-20T11:29:48Z</time>
      </trkpt>
      <trkpt lat="44.90387" lon="6.71123">
        <ele>2313.84</ele>
        <time>2021-11-20T11:29:57Z</time>
      </trkpt>
      <trkpt lat="44.90408" lon="6.7112">
        <ele>2294.66</ele>
        <time>2021-11-20T11:30:07Z</time>
      </trkpt>
      <trkpt lat="44.90426" lon="6.71115">
        <ele>2297.48</ele>
        <time>2021-11-20T11:30:17Z</time>
      </trkpt>
      <trkpt lat="44.90427" lon="6.7111">
        <ele>2321.95</ele>
        <time>2021-11-20T11:30:27Z</time>
      </trkpt>
      <trkpt lat="44.90428" lon="6.7111">
        <ele>2319.82</ele>
        <time>2021-11-20T11:30:39Z</time>
      </trkpt>
      <trkpt lat="44.90439" lon="6.71107">
        <ele>2320.11</ele>
        <time>2021-11-20T11:30:49Z</time>
      </trkpt>
      <trkpt lat="44.90444" lon="6.71104">
        <ele>2301.79</ele>
        <time>2021-11-20T11:30:59Z</time>
      </trkpt>
      <trkpt lat="44.90447" lon="6.71106">
        <ele>2309.1</ele>
        <time>2021-11-20T11:31:34Z</time>
      </trkpt>
      <trkpt lat="44.9046" lon="6.71158">
        <ele>2304.59</ele>
        <time>2021-11-20T11:31:43Z</time>
      </trkpt>
      <trkpt lat="44.90459" lon="6.71142">
        <ele>2291.64</ele>
        <time>2021-11-20T11:31:53Z</time>
      </trkpt>
      <trkpt lat="44.90484" lon="6.71137">
        <ele>2272.61</ele>
        <time>2021-11-20T11:32:02Z</time>
      </trkpt>
      <trkpt lat="44.90512" lon="6.71154">
        <ele>2273.98</ele>
        <time>2021-11-20T11:32:11Z</time>
      </trkpt>
      <trkpt lat="44.90515" lon="6.71161">
        <ele>2281.31</ele>
        <time>2021-11-20T11:32:22Z</time>
      </trkpt>
      <trkpt lat="44.90532" lon="6.71204">
        <ele>2282.41</ele>
        <time>2021-11-20T11:32:32Z</time>
      </trkpt>
      <trkpt lat="44.90557" lon="6.71287">
        <ele>2267.68</ele>
        <time>2021-11-20T11:32:42Z</time>
      </trkpt>
      <trkpt lat="44.90559" lon="6.71289">
        <ele>2264.41</ele>
        <time>2021-11-20T11:32:52Z</time>
      </trkpt>
      <trkpt lat="44.90559" lon="6.7129">
        <ele>2263.66</ele>
        <time>2021-11-20T11:33:11Z</time>
      </trkpt>
      <trkpt lat="44.9056" lon="6.7129">
        <ele>2262.52</ele>
        <time>2021-11-20T11:33:21Z</time>
      </trkpt>
      <trkpt lat="44.90561" lon="6.71291">
        <ele>2266.54</ele>
        <time>2021-11-20T11:33:31Z</time>
      </trkpt>
      <trkpt lat="44.90561" lon="6.71289">
        <ele>2267.29</ele>
        <time>2021-11-20T11:33:41Z</time>
      </trkpt>
      <trkpt lat="44.90561" lon="6.71288">
        <ele>2267.43</ele>
        <time>2021-11-20T11:34:11Z</time>
      </trkpt>
      <trkpt lat="44.9056" lon="6.7129">
        <ele>2263.47</ele>
        <time>2021-11-20T11:34:38Z</time>
      </trkpt>
      <trkpt lat="44.90562" lon="6.71291">
        <ele>2273.55</ele>
        <time>2021-11-20T11:34:49Z</time>
      </trkpt>
      <trkpt lat="44.90588" lon="6.71346">
        <ele>2262.29</ele>
        <time>2021-11-20T11:34:59Z</time>
      </trkpt>
      <trkpt lat="44.90603" lon="6.71399">
        <ele>2251.35</ele>
        <time>2021-11-20T11:35:08Z</time>
      </trkpt>
      <trkpt lat="44.90601" lon="6.71402">
        <ele>2268.28</ele>
        <time>2021-11-20T11:35:18Z</time>
      </trkpt>
      <trkpt lat="44.90601" lon="6.71403">
        <ele>2253.95</ele>
        <time>2021-11-20T11:35:33Z</time>
      </trkpt>
      <trkpt lat="44.90602" lon="6.71405">
        <ele>2249.23</ele>
        <time>2021-11-20T11:35:43Z</time>
      </trkpt>
      <trkpt lat="44.90622" lon="6.71441">
        <ele>2251.02</ele>
        <time>2021-11-20T11:35:53Z</time>
      </trkpt>
      <trkpt lat="44.90653" lon="6.71521">
        <ele>2243.93</ele>
        <time>2021-11-20T11:36:03Z</time>
      </trkpt>
      <trkpt lat="44.90713" lon="6.716">
        <ele>2232.2</ele>
        <time>2021-11-20T11:36:13Z</time>
      </trkpt>
      <trkpt lat="44.9074" lon="6.71711">
        <ele>2224.17</ele>
        <time>2021-11-20T11:36:23Z</time>
      </trkpt>
      <trkpt lat="44.90747" lon="6.71739">
        <ele>2222.23</ele>
        <time>2021-11-20T11:36:33Z</time>
      </trkpt>
      <trkpt lat="44.90746" lon="6.71739">
        <ele>2223.48</ele>
        <time>2021-11-20T11:36:43Z</time>
      </trkpt>
      <trkpt lat="44.90746" lon="6.71738">
        <ele>2208.62</ele>
        <time>2021-11-20T11:36:53Z</time>
      </trkpt>
      <trkpt lat="44.90746" lon="6.71736">
        <ele>2204.76</ele>
        <time>2021-11-20T11:37:03Z</time>
      </trkpt>
      <trkpt lat="44.90743" lon="6.71775">
        <ele>2210.11</ele>
        <time>2021-11-20T11:37:13Z</time>
      </trkpt>
      <trkpt lat="44.90733" lon="6.71779">
        <ele>2205</ele>
        <time>2021-11-20T11:37:23Z</time>
      </trkpt>
      <trkpt lat="44.90731" lon="6.71777">
        <ele>2205.96</ele>
        <time>2021-11-20T11:37:33Z</time>
      </trkpt>
      <trkpt lat="44.90733" lon="6.71776">
        <ele>2213.22</ele>
        <time>2021-11-20T11:37:43Z</time>
      </trkpt>
      <trkpt lat="44.90734" lon="6.71776">
        <ele>2213.72</ele>
        <time>2021-11-20T11:37:53Z</time>
      </trkpt>
      <trkpt lat="44.90736" lon="6.71775">
        <ele>2212.35</ele>
        <time>2021-11-20T11:38:03Z</time>
      </trkpt>
      <trkpt lat="44.90737" lon="6.71774">
        <ele>2207.58</ele>
        <time>2021-11-20T11:38:13Z</time>
      </trkpt>
      <trkpt lat="44.90736" lon="6.71775">
        <ele>2212.51</ele>
        <time>2021-11-20T11:38:26Z</time>
      </trkpt>
      <trkpt lat="44.90735" lon="6.71777">
        <ele>2212.74</ele>
        <time>2021-11-20T11:38:36Z</time>
      </trkpt>
      <trkpt lat="44.90704" lon="6.71789">
        <ele>2202.96</ele>
        <time>2021-11-20T11:38:46Z</time>
      </trkpt>
      <trkpt lat="44.90697" lon="6.71852">
        <ele>2196.16</ele>
        <time>2021-11-20T11:38:56Z</time>
      </trkpt>
      <trkpt lat="44.90721" lon="6.71898">
        <ele>2190.42</ele>
        <time>2021-11-20T11:39:06Z</time>
      </trkpt>
      <trkpt lat="44.90716" lon="6.71944">
        <ele>2183.18</ele>
        <time>2021-11-20T11:39:16Z</time>
      </trkpt>
      <trkpt lat="44.90762" lon="6.71982">
        <ele>2178.05</ele>
        <time>2021-11-20T11:39:26Z</time>
      </trkpt>
      <trkpt lat="44.90798" lon="6.72007">
        <ele>2174.14</ele>
        <time>2021-11-20T11:39:36Z</time>
      </trkpt>
      <trkpt lat="44.90799" lon="6.72017">
        <ele>2170.37</ele>
        <time>2021-11-20T11:39:46Z</time>
      </trkpt>
      <trkpt lat="44.908" lon="6.72016">
        <ele>2178.08</ele>
        <time>2021-11-20T11:39:56Z</time>
      </trkpt>
      <trkpt lat="44.90801" lon="6.72016">
        <ele>2176.74</ele>
        <time>2021-11-20T11:40:06Z</time>
      </trkpt>
      <trkpt lat="44.90802" lon="6.7202">
        <ele>2177.32</ele>
        <time>2021-11-20T11:40:16Z</time>
      </trkpt>
      <trkpt lat="44.90804" lon="6.72043">
        <ele>2174.23</ele>
        <time>2021-11-20T11:40:26Z</time>
      </trkpt>
      <trkpt lat="44.90805" lon="6.72042">
        <ele>2179.78</ele>
        <time>2021-11-20T11:40:36Z</time>
      </trkpt>
      <trkpt lat="44.90804" lon="6.72042">
        <ele>2174.69</ele>
        <time>2021-11-20T11:41:00Z</time>
      </trkpt>
      <trkpt lat="44.90815" lon="6.7205">
        <ele>2170.78</ele>
        <time>2021-11-20T11:41:10Z</time>
      </trkpt>
      <trkpt lat="44.90842" lon="6.72075">
        <ele>2164.51</ele>
        <time>2021-11-20T11:41:19Z</time>
      </trkpt>
      <trkpt lat="44.9085" lon="6.72116">
        <ele>2158.15</ele>
        <time>2021-11-20T11:41:30Z</time>
      </trkpt>
      <trkpt lat="44.90848" lon="6.72113">
        <ele>2160.17</ele>
        <time>2021-11-20T11:41:40Z</time>
      </trkpt>
      <trkpt lat="44.90849" lon="6.72113">
        <ele>2107.05</ele>
        <time>2021-11-20T11:41:50Z</time>
      </trkpt>
      <trkpt lat="44.90849" lon="6.72112">
        <ele>2096.39</ele>
        <time>2021-11-20T11:42:07Z</time>
      </trkpt>
      <trkpt lat="44.90851" lon="6.72113">
        <ele>2092.12</ele>
        <time>2021-11-20T11:42:17Z</time>
      </trkpt>
      <trkpt lat="44.90851" lon="6.72111">
        <ele>2062.77</ele>
        <time>2021-11-20T11:42:27Z</time>
      </trkpt>
      <trkpt lat="44.90851" lon="6.72112">
        <ele>2091.18</ele>
        <time>2021-11-20T11:42:47Z</time>
      </trkpt>
      <trkpt lat="44.90849" lon="6.72113">
        <ele>2098.99</ele>
        <time>2021-11-20T11:42:57Z</time>
      </trkpt>
      <trkpt lat="44.9085" lon="6.72112">
        <ele>2095.21</ele>
        <time>2021-11-20T11:43:16Z</time>
      </trkpt>
      <trkpt lat="44.90854" lon="6.72113">
        <ele>2113.78</ele>
        <time>2021-11-20T11:43:26Z</time>
      </trkpt>
      <trkpt lat="44.90876" lon="6.72121">
        <ele>2107.1</ele>
        <time>2021-11-20T11:43:35Z</time>
      </trkpt>
      <trkpt lat="44.90876" lon="6.72123">
        <ele>2091.49</ele>
        <time>2021-11-20T11:43:45Z</time>
      </trkpt>
      <trkpt lat="44.90876" lon="6.72125">
        <ele>2047.92</ele>
        <time>2021-11-20T11:43:55Z</time>
      </trkpt>
      <trkpt lat="44.90875" lon="6.72127">
        <ele>2063.91</ele>
        <time>2021-11-20T11:44:05Z</time>
      </trkpt>
      <trkpt lat="44.90876" lon="6.72128">
        <ele>2062.24</ele>
        <time>2021-11-20T11:44:15Z</time>
      </trkpt>
      <trkpt lat="44.9088" lon="6.72127">
        <ele>2043.84</ele>
        <time>2021-11-20T11:44:25Z</time>
      </trkpt>
      <trkpt lat="44.9088" lon="6.72127">
        <ele>2031.75</ele>
        <time>2021-11-20T11:44:36Z</time>
      </trkpt>
      <trkpt lat="44.90879" lon="6.72124">
        <ele>2040.72</ele>
        <time>2021-11-20T11:44:46Z</time>
      </trkpt>
      <trkpt lat="44.9088" lon="6.72123">
        <ele>2036.25</ele>
        <time>2021-11-20T11:44:58Z</time>
      </trkpt>
      <trkpt lat="44.90881" lon="6.72121">
        <ele>2055</ele>
        <time>2021-11-20T11:45:08Z</time>
      </trkpt>
      <trkpt lat="44.90881" lon="6.72123">
        <ele>2033.88</ele>
        <time>2021-11-20T11:45:18Z</time>
      </trkpt>
      <trkpt lat="44.90866" lon="6.72145">
        <ele>2070.44</ele>
        <time>2021-11-20T11:45:27Z</time>
      </trkpt>
      <trkpt lat="44.90876" lon="6.7216">
        <ele>2091.52</ele>
        <time>2021-11-20T11:45:36Z</time>
      </trkpt>
      <trkpt lat="44.90917" lon="6.72196">
        <ele>2095.46</ele>
        <time>2021-11-20T11:45:46Z</time>
      </trkpt>
      <trkpt lat="44.90961" lon="6.72244">
        <ele>2069.66</ele>
        <time>2021-11-20T11:45:56Z</time>
      </trkpt>
      <trkpt lat="44.90983" lon="6.72257">
        <ele>2066.51</ele>
        <time>2021-11-20T11:46:06Z</time>
      </trkpt>
      <trkpt lat="44.90983" lon="6.72255">
        <ele>2061.88</ele>
        <time>2021-11-20T11:46:16Z</time>
      </trkpt>
      <trkpt lat="44.90984" lon="6.72256">
        <ele>2034.64</ele>
        <time>2021-11-20T11:46:29Z</time>
      </trkpt>
      <trkpt lat="44.90986" lon="6.72255">
        <ele>2027.88</ele>
        <time>2021-11-20T11:46:39Z</time>
      </trkpt>
      <trkpt lat="44.90986" lon="6.72256">
        <ele>2038.03</ele>
        <time>2021-11-20T11:46:50Z</time>
      </trkpt>
      <trkpt lat="44.90988" lon="6.72257">
        <ele>2033.84</ele>
        <time>2021-11-20T11:47:09Z</time>
      </trkpt>
      <trkpt lat="44.90989" lon="6.72259">
        <ele>2038.55</ele>
        <time>2021-11-20T11:47:19Z</time>
      </trkpt>
      <trkpt lat="44.90988" lon="6.72259">
        <ele>2037.56</ele>
        <time>2021-11-20T11:47:53Z</time>
      </trkpt>
      <trkpt lat="44.90989" lon="6.72258">
        <ele>2064.5</ele>
        <time>2021-11-20T11:48:07Z</time>
      </trkpt>
      <trkpt lat="44.90992" lon="6.72259">
        <ele>2069.36</ele>
        <time>2021-11-20T11:48:17Z</time>
      </trkpt>
      <trkpt lat="44.90994" lon="6.72261">
        <ele>2051.38</ele>
        <time>2021-11-20T11:48:27Z</time>
      </trkpt>
      <trkpt lat="44.90994" lon="6.72263">
        <ele>2045.76</ele>
        <time>2021-11-20T11:48:37Z</time>
      </trkpt>
      <trkpt lat="44.91014" lon="6.72289">
        <ele>2055.26</ele>
        <time>2021-11-20T11:48:47Z</time>
      </trkpt>
      <trkpt lat="44.91078" lon="6.72284">
        <ele>2067.48</ele>
        <time>2021-11-20T11:48:57Z</time>
      </trkpt>
      <trkpt lat="44.91132" lon="6.7228">
        <ele>2068.86</ele>
        <time>2021-11-20T11:49:07Z</time>
      </trkpt>
      <trkpt lat="44.91185" lon="6.72315">
        <ele>2063.26</ele>
        <time>2021-11-20T11:49:17Z</time>
      </trkpt>
      <trkpt lat="44.91224" lon="6.72326">
        <ele>2050.35</ele>
        <time>2021-11-20T11:49:27Z</time>
      </trkpt>
      <trkpt lat="44.91223" lon="6.72321">
        <ele>2030.41</ele>
        <time>2021-11-20T11:49:37Z</time>
      </trkpt>
      <trkpt lat="44.91222" lon="6.7232">
        <ele>2034.52</ele>
        <time>2021-11-20T11:49:52Z</time>
      </trkpt>
      <trkpt lat="44.91224" lon="6.7232">
        <ele>2040.86</ele>
        <time>2021-11-20T11:50:02Z</time>
      </trkpt>
      <trkpt lat="44.9124" lon="6.72325">
        <ele>2043.35</ele>
        <time>2021-11-20T11:50:12Z</time>
      </trkpt>
      <trkpt lat="44.91295" lon="6.72361">
        <ele>2038.56</ele>
        <time>2021-11-20T11:50:22Z</time>
      </trkpt>
      <trkpt lat="44.91363" lon="6.72423">
        <ele>2031.68</ele>
        <time>2021-11-20T11:50:32Z</time>
      </trkpt>
      <trkpt lat="44.9143" lon="6.7244">
        <ele>2026.51</ele>
        <time>2021-11-20T11:50:42Z</time>
      </trkpt>
      <trkpt lat="44.91442" lon="6.72449">
        <ele>2023.25</ele>
        <time>2021-11-20T11:50:52Z</time>
      </trkpt>
      <trkpt lat="44.91443" lon="6.72449">
        <ele>2031.59</ele>
        <time>2021-11-20T11:51:02Z</time>
      </trkpt>
      <trkpt lat="44.91442" lon="6.72448">
        <ele>2026.99</ele>
        <time>2021-11-20T11:51:16Z</time>
      </trkpt>
      <trkpt lat="44.9144" lon="6.72449">
        <ele>2019.47</ele>
        <time>2021-11-20T11:51:26Z</time>
      </trkpt>
      <trkpt lat="44.91441" lon="6.7245">
        <ele>2026.05</ele>
        <time>2021-11-20T11:51:36Z</time>
      </trkpt>
      <trkpt lat="44.91442" lon="6.72452">
        <ele>2030.52</ele>
        <time>2021-11-20T11:51:46Z</time>
      </trkpt>
      <trkpt lat="44.91443" lon="6.72451">
        <ele>2023.6</ele>
        <time>2021-11-20T11:52:08Z</time>
      </trkpt>
      <trkpt lat="44.91451" lon="6.72448">
        <ele>2032.63</ele>
        <time>2021-11-20T11:52:18Z</time>
      </trkpt>
      <trkpt lat="44.91513" lon="6.72479">
        <ele>2027.87</ele>
        <time>2021-11-20T11:52:28Z</time>
      </trkpt>
      <trkpt lat="44.91586" lon="6.72475">
        <ele>2019.19</ele>
        <time>2021-11-20T11:52:38Z</time>
      </trkpt>
      <trkpt lat="44.91649" lon="6.72466">
        <ele>2013.3</ele>
        <time>2021-11-20T11:52:48Z</time>
      </trkpt>
      <trkpt lat="44.91725" lon="6.72431">
        <ele>2006.67</ele>
        <time>2021-11-20T11:52:58Z</time>
      </trkpt>
      <trkpt lat="44.91795" lon="6.72425">
        <ele>2000.98</ele>
        <time>2021-11-20T11:53:08Z</time>
      </trkpt>
      <trkpt lat="44.91868" lon="6.72408">
        <ele>1994.1</ele>
        <time>2021-11-20T11:53:18Z</time>
      </trkpt>
      <trkpt lat="44.91936" lon="6.72391">
        <ele>1990.47</ele>
        <time>2021-11-20T11:53:28Z</time>
      </trkpt>
      <trkpt lat="44.91993" lon="6.7237">
        <ele>1988.5</ele>
        <time>2021-11-20T11:53:38Z</time>
      </trkpt>
      <trkpt lat="44.92048" lon="6.72349">
        <ele>1984.07</ele>
        <time>2021-11-20T11:53:48Z</time>
      </trkpt>
      <trkpt lat="44.92088" lon="6.72332">
        <ele>1982.16</ele>
        <time>2021-11-20T11:53:58Z</time>
      </trkpt>
      <trkpt lat="44.92139" lon="6.72311">
        <ele>1977.56</ele>
        <time>2021-11-20T11:54:08Z</time>
      </trkpt>
      <trkpt lat="44.92164" lon="6.72282">
        <ele>1972.22</ele>
        <time>2021-11-20T11:54:17Z</time>
      </trkpt>
      <trkpt lat="44.92162" lon="6.72278">
        <ele>1850.22</ele>
        <time>2021-11-20T11:54:27Z</time>
      </trkpt>
      <trkpt lat="44.92162" lon="6.72281">
        <ele>1868.14</ele>
        <time>2021-11-20T11:54:37Z</time>
      </trkpt>
      <trkpt lat="44.92162" lon="6.72282">
        <ele>1835.76</ele>
        <time>2021-11-20T11:54:47Z</time>
      </trkpt>
      <trkpt lat="44.92162" lon="6.72281">
        <ele>1840.13</ele>
        <time>2021-11-20T11:55:06Z</time>
      </trkpt>
      <trkpt lat="44.92162" lon="6.72279">
        <ele>1867.49</ele>
        <time>2021-11-20T11:55:16Z</time>
      </trkpt>
      <trkpt lat="44.92164" lon="6.72279">
        <ele>1970.93</ele>
        <time>2021-11-20T11:55:30Z</time>
      </trkpt>
      <trkpt lat="44.92198" lon="6.72251">
        <ele>1964.27</ele>
        <time>2021-11-20T11:55:40Z</time>
      </trkpt>
      <trkpt lat="44.92246" lon="6.72221">
        <ele>1958.55</ele>
        <time>2021-11-20T11:55:50Z</time>
      </trkpt>
      <trkpt lat="44.92284" lon="6.72187">
        <ele>1959.13</ele>
        <time>2021-11-20T11:56:00Z</time>
      </trkpt>
      <trkpt lat="44.92309" lon="6.72173">
        <ele>1954.13</ele>
        <time>2021-11-20T11:56:09Z</time>
      </trkpt>
      <trkpt lat="44.9232" lon="6.72154">
        <ele>1897.76</ele>
        <time>2021-11-20T11:56:19Z</time>
      </trkpt>
      <trkpt lat="44.92322" lon="6.72153">
        <ele>1913.31</ele>
        <time>2021-11-20T11:56:29Z</time>
      </trkpt>
      <trkpt lat="44.92341" lon="6.72148">
        <ele>1926.53</ele>
        <time>2021-11-20T11:56:39Z</time>
      </trkpt>
      <trkpt lat="44.9236" lon="6.72099">
        <ele>1918.99</ele>
        <time>2021-11-20T11:56:49Z</time>
      </trkpt>
      <trkpt lat="44.92411" lon="6.72049">
        <ele>1910.09</ele>
        <time>2021-11-20T11:56:59Z</time>
      </trkpt>
      <trkpt lat="44.92457" lon="6.72027">
        <ele>1907.05</ele>
        <time>2021-11-20T11:57:09Z</time>
      </trkpt>
      <trkpt lat="44.92495" lon="6.72041">
        <ele>1867.36</ele>
        <time>2021-11-20T11:57:19Z</time>
      </trkpt>
      <trkpt lat="44.92548" lon="6.72046">
        <ele>1851.44</ele>
        <time>2021-11-20T11:57:29Z</time>
      </trkpt>
      <trkpt lat="44.92588" lon="6.72059">
        <ele>1848.3</ele>
        <time>2021-11-20T11:57:39Z</time>
      </trkpt>
      <trkpt lat="44.92589" lon="6.7206">
        <ele>1834.57</ele>
        <time>2021-11-20T11:57:49Z</time>
      </trkpt>
      <trkpt lat="44.92591" lon="6.72062">
        <ele>1853.6</ele>
        <time>2021-11-20T11:57:59Z</time>
      </trkpt>
      <trkpt lat="44.92591" lon="6.7206">
        <ele>1905.19</ele>
        <time>2021-11-20T11:58:09Z</time>
      </trkpt>
      <trkpt lat="44.92591" lon="6.72059">
        <ele>1897.09</ele>
        <time>2021-11-20T11:58:19Z</time>
      </trkpt>
      <trkpt lat="44.9259" lon="6.7206">
        <ele>1900.16</ele>
        <time>2021-11-20T11:58:29Z</time>
      </trkpt>
      <trkpt lat="44.92591" lon="6.72059">
        <ele>1904.21</ele>
        <time>2021-11-20T11:59:09Z</time>
      </trkpt>
      <trkpt lat="44.926" lon="6.72">
        <ele>1887.06</ele>
        <time>2021-11-20T11:59:19Z</time>
      </trkpt>
      <trkpt lat="44.92649" lon="6.72002">
        <ele>1888.6</ele>
        <time>2021-11-20T11:59:29Z</time>
      </trkpt>
      <trkpt lat="44.92693" lon="6.72006">
        <ele>1835.93</ele>
        <time>2021-11-20T11:59:38Z</time>
      </trkpt>
      <trkpt lat="44.92696" lon="6.72006">
        <ele>1834.72</ele>
        <time>2021-11-20T11:59:48Z</time>
      </trkpt>
      <trkpt lat="44.92697" lon="6.72006">
        <ele>1828.52</ele>
        <time>2021-11-20T11:59:58Z</time>
      </trkpt>
      <trkpt lat="44.92699" lon="6.72006">
        <ele>1826.9</ele>
        <time>2021-11-20T12:00:08Z</time>
      </trkpt>
      <trkpt lat="44.92699" lon="6.72005">
        <ele>1844.36</ele>
        <time>2021-11-20T12:00:21Z</time>
      </trkpt>
      <trkpt lat="44.92706" lon="6.71992">
        <ele>1842.63</ele>
        <time>2021-11-20T12:00:31Z</time>
      </trkpt>
      <trkpt lat="44.92743" lon="6.71956">
        <ele>1829.86</ele>
        <time>2021-11-20T12:00:41Z</time>
      </trkpt>
      <trkpt lat="44.92779" lon="6.71922">
        <ele>1820.49</ele>
        <time>2021-11-20T12:00:51Z</time>
      </trkpt>
      <trkpt lat="44.92812" lon="6.71894">
        <ele>1823.98</ele>
        <time>2021-11-20T12:01:00Z</time>
      </trkpt>
      <trkpt lat="44.92816" lon="6.71853">
        <ele>1817.14</ele>
        <time>2021-11-20T12:01:11Z</time>
      </trkpt>
      <trkpt lat="44.9278" lon="6.71765">
        <ele>1811.52</ele>
        <time>2021-11-20T12:01:21Z</time>
      </trkpt>
      <trkpt lat="44.9277" lon="6.71766">
        <ele>1811.37</ele>
        <time>2021-11-20T12:01:30Z</time>
      </trkpt>
      <trkpt lat="44.92772" lon="6.71737">
        <ele>1817.75</ele>
        <time>2021-11-20T12:01:40Z</time>
      </trkpt>
      <trkpt lat="44.92774" lon="6.71735">
        <ele>1812.22</ele>
        <time>2021-11-20T12:01:50Z</time>
      </trkpt>
      <trkpt lat="44.92772" lon="6.71737">
        <ele>1809.43</ele>
        <time>2021-11-20T12:02:00Z</time>
      </trkpt>
      <trkpt lat="44.92774" lon="6.7171">
        <ele>1808.27</ele>
        <time>2021-11-20T12:02:10Z</time>
      </trkpt>
      <trkpt lat="44.92772" lon="6.71646">
        <ele>1804.97</ele>
        <time>2021-11-20T12:02:19Z</time>
      </trkpt>
      <trkpt lat="44.92781" lon="6.71626">
        <ele>1803.63</ele>
        <time>2021-11-20T12:02:28Z</time>
      </trkpt>
      <trkpt lat="44.92788" lon="6.71626">
        <ele>1804.12</ele>
        <time>2021-11-20T12:02:38Z</time>
      </trkpt>
      <trkpt lat="44.92788" lon="6.71624">
        <ele>1804.76</ele>
        <time>2021-11-20T12:02:47Z</time>
      </trkpt>
      <trkpt lat="44.92799" lon="6.71616">
        <ele>1805.45</ele>
        <time>2021-11-20T12:02:56Z</time>
      </trkpt>
      <trkpt lat="44.92818" lon="6.7157">
        <ele>1802.15</ele>
        <time>2021-11-20T12:03:06Z</time>
      </trkpt>
      <trkpt lat="44.92836" lon="6.7151">
        <ele>1798.42</ele>
        <time>2021-11-20T12:03:15Z</time>
      </trkpt>
      <trkpt lat="44.92833" lon="6.71475">
        <ele>1797.39</ele>
        <time>2021-11-20T12:03:25Z</time>
      </trkpt>
      <trkpt lat="44.92839" lon="6.71479">
        <ele>1798.15</ele>
        <time>2021-11-20T12:03:34Z</time>
      </trkpt>
      <trkpt lat="44.92839" lon="6.71476">
        <ele>1799.2</ele>
        <time>2021-11-20T12:03:44Z</time>
      </trkpt>
      <trkpt lat="44.9284" lon="6.71474">
        <ele>1798.09</ele>
        <time>2021-11-20T12:03:53Z</time>
      </trkpt>
      <trkpt lat="44.92826" lon="6.71478">
        <ele>1794.8</ele>
        <time>2021-11-20T12:04:03Z</time>
      </trkpt>
      <trkpt lat="44.92817" lon="6.71475">
        <ele>1792.83</ele>
        <time>2021-11-20T12:04:13Z</time>
      </trkpt>
      <trkpt lat="44.9281" lon="6.71445">
        <ele>1791.9</ele>
        <time>2021-11-20T12:04:23Z</time>
      </trkpt>
      <trkpt lat="44.92802" lon="6.71385">
        <ele>1790.42</ele>
        <time>2021-11-20T12:04:32Z</time>
      </trkpt>
      <trkpt lat="44.92803" lon="6.71356">
        <ele>1789.93</ele>
        <time>2021-11-20T12:04:41Z</time>
      </trkpt>
      <trkpt lat="44.92806" lon="6.71328">
        <ele>1789.23</ele>
        <time>2021-11-20T12:04:51Z</time>
      </trkpt>
      <trkpt lat="44.92815" lon="6.71315">
        <ele>1787.42</ele>
        <time>2021-11-20T12:05:01Z</time>
      </trkpt>
      <trkpt lat="44.92814" lon="6.71313">
        <ele>1788.26</ele>
        <time>2021-11-20T12:05:11Z</time>
      </trkpt>
      <trkpt lat="44.92811" lon="6.71312">
        <ele>1788.4</ele>
        <time>2021-11-20T12:05:21Z</time>
      </trkpt>
      <trkpt lat="44.92812" lon="6.71312">
        <ele>1788.55</ele>
        <time>2021-11-20T12:05:31Z</time>
      </trkpt>
      <trkpt lat="44.92811" lon="6.71312">
        <ele>1792.31</ele>
        <time>2021-11-20T12:05:41Z</time>
      </trkpt>
      <trkpt lat="44.92811" lon="6.71313">
        <ele>1791.87</ele>
        <time>2021-11-20T12:05:52Z</time>
      </trkpt>
      <trkpt lat="44.92812" lon="6.71312">
        <ele>1790.74</ele>
        <time>2021-11-20T12:06:14Z</time>
      </trkpt>
      <trkpt lat="44.92806" lon="6.71282">
        <ele>1788.69</ele>
        <time>2021-11-20T12:06:23Z</time>
      </trkpt>
      <trkpt lat="44.92799" lon="6.71216">
        <ele>1780.76</ele>
        <time>2021-11-20T12:06:33Z</time>
      </trkpt>
      <trkpt lat="44.92788" lon="6.71198">
        <ele>1779.59</ele>
        <time>2021-11-20T12:06:42Z</time>
      </trkpt>
      <trkpt lat="44.92789" lon="6.71201">
        <ele>1780.34</ele>
        <time>2021-11-20T12:06:52Z</time>
      </trkpt>
      <trkpt lat="44.92789" lon="6.71199">
        <ele>1783.05</ele>
        <time>2021-11-20T12:07:02Z</time>
      </trkpt>
      <trkpt lat="44.92789" lon="6.71198">
        <ele>1782.14</ele>
        <time>2021-11-20T12:07:12Z</time>
      </trkpt>
      <trkpt lat="44.9279" lon="6.71198">
        <ele>1781.7</ele>
        <time>2021-11-20T12:07:22Z</time>
      </trkpt>
      <trkpt lat="44.92791" lon="6.71197">
        <ele>1782.42</ele>
        <time>2021-11-20T12:07:33Z</time>
      </trkpt>
      <trkpt lat="44.92791" lon="6.71196">
        <ele>1783</ele>
        <time>2021-11-20T12:07:44Z</time>
      </trkpt>
      <trkpt lat="44.92792" lon="6.71195">
        <ele>1782.53</ele>
        <time>2021-11-20T12:07:54Z</time>
      </trkpt>
      <trkpt lat="44.92793" lon="6.71193">
        <ele>1783.71</ele>
        <time>2021-11-20T12:08:04Z</time>
      </trkpt>
      <trkpt lat="44.92794" lon="6.71193">
        <ele>1783.4</ele>
        <time>2021-11-20T12:08:24Z</time>
      </trkpt>
      <trkpt lat="44.92799" lon="6.7119">
        <ele>1784.94</ele>
        <time>2021-11-20T12:08:33Z</time>
      </trkpt>
      <trkpt lat="44.92808" lon="6.71184">
        <ele>1785.89</ele>
        <time>2021-11-20T12:08:42Z</time>
      </trkpt>
      <trkpt lat="44.92809" lon="6.71183">
        <ele>1785.65</ele>
        <time>2021-11-20T12:08:52Z</time>
      </trkpt>
      <trkpt lat="44.92806" lon="6.71178">
        <ele>1786.36</ele>
        <time>2021-11-20T12:09:03Z</time>
      </trkpt>
      <trkpt lat="44.92804" lon="6.71182">
        <ele>1786.77</ele>
        <time>2021-11-20T12:09:13Z</time>
      </trkpt>
      <trkpt lat="44.92805" lon="6.71184">
        <ele>1788.83</ele>
        <time>2021-11-20T12:09:23Z</time>
      </trkpt>
      <trkpt lat="44.92803" lon="6.7118">
        <ele>1787.92</ele>
        <time>2021-11-20T12:09:32Z</time>
      </trkpt>
      <trkpt lat="44.92798" lon="6.7117">
        <ele>1786.34</ele>
        <time>2021-11-20T12:09:41Z</time>
      </trkpt>
      <trkpt lat="44.92794" lon="6.7116">
        <ele>1785.12</ele>
        <time>2021-11-20T12:09:51Z</time>
      </trkpt>
      <trkpt lat="44.92792" lon="6.71147">
        <ele>1783.42</ele>
        <time>2021-11-20T12:10:00Z</time>
      </trkpt>
      <trkpt lat="44.92788" lon="6.71133">
        <ele>1780.33</ele>
        <time>2021-11-20T12:10:09Z</time>
      </trkpt>
      <trkpt lat="44.92782" lon="6.7112">
        <ele>1779.88</ele>
        <time>2021-11-20T12:10:19Z</time>
      </trkpt>
      <trkpt lat="44.92776" lon="6.71108">
        <ele>1777.37</ele>
        <time>2021-11-20T12:10:28Z</time>
      </trkpt>
      <trkpt lat="44.92773" lon="6.71095">
        <ele>1776.45</ele>
        <time>2021-11-20T12:10:38Z</time>
      </trkpt>
      <trkpt lat="44.92768" lon="6.71084">
        <ele>1775.87</ele>
        <time>2021-11-20T12:10:47Z</time>
      </trkpt>
      <trkpt lat="44.92763" lon="6.71082">
        <ele>1773.94</ele>
        <time>2021-11-20T12:10:56Z</time>
      </trkpt>
      <trkpt lat="44.92761" lon="6.71082">
        <ele>1772.24</ele>
        <time>2021-11-20T12:11:06Z</time>
      </trkpt>
      <trkpt lat="44.92763" lon="6.71074">
        <ele>1773.95</ele>
        <time>2021-11-20T12:11:16Z</time>
      </trkpt>
      <trkpt lat="44.92766" lon="6.71075">
        <ele>1773.71</ele>
        <time>2021-11-20T12:11:26Z</time>
      </trkpt>
      <trkpt lat="44.92767" lon="6.71076">
        <ele>1773.49</ele>
        <time>2021-11-20T12:11:36Z</time>
      </trkpt>
      <trkpt lat="44.92768" lon="6.71076">
        <ele>1776.29</ele>
        <time>2021-11-20T12:12:57Z</time>
      </trkpt>
      <trkpt lat="44.92769" lon="6.71075">
        <ele>1776.72</ele>
        <time>2021-11-20T12:13:07Z</time>
      </trkpt>
      <trkpt lat="44.92768" lon="6.71075">
        <ele>1777.12</ele>
        <time>2021-11-20T12:13:34Z</time>
      </trkpt>
      <trkpt lat="44.92768" lon="6.71076">
        <ele>1777.12</ele>
        <time>2021-11-20T12:13:44Z</time>
      </trkpt>
      <trkpt lat="44.92768" lon="6.71075">
        <ele>1776.65</ele>
        <time>2021-11-20T12:14:12Z</time>
      </trkpt>
    </trkseg>
  </trk>
</gpx>